<?xml version="1.0" encoding="UTF-8" standalone="no" ?>
<gpx xmlns="http://www.topografix.com/GPX/1/1" xmlns:xsi="http://www.w3.org/2001/XMLSchema-instance" xsi:schemaLocation="http://www.topografix.com/GPX/1/1 http://www.topografix.com/GPX/1/1/gpx.xsd" version="1.1" creator="VisuGPX - https://www.visugpx.com">
  <metadata>
    <name>RSPFY-Rochers d'Angennes</name>
    <desc><![CDATA[Marche nordique au départ du parking des Rochers d'Angennes près de Poigny-La-Forêt.]]></desc>
  </metadata>
  <trk>
    <name><![CDATA[2024-10-03 09:04]]></name>
    <desc><![CDATA[<p>Heure de départ: 09:04 3 oct. 2024<br/>Heure d'arrivée: 11:39 3 oct. 2024<br/>Distance: 11,8 km (02:34)<br/>Temps déplacement: 02:11<br/>Vitesse moyenne: 4,56 km/h<br/>Vitesse moyenne mouv.: 5,34 km/h<br/>Vitesse Max.: 8,29 km/h<br/>Altitude minimale: 138 m<br/>Altitude maximale: 176 m<br/>Vitesse de montée: 144,4 m/h<br/>Vitesse de descente: -147,6 m/h<br/>Gain d'altitude: 193 m<br/>Perte d'altitude: -173 m<br/>Temps de montée: 01:20<br/>Temps de descente: 01:10<br/></p><hr align="center" width="480" style="height: 2px; width: 517px"/>]]></desc>
    <trkseg>
      <trkpt lat="48.67252" lon="1.7377">
        <ele>139.9</ele>
        <time>2024-10-03T07:04:45Z</time>
      </trkpt>
      <trkpt lat="48.67246" lon="1.73782">
        <ele>140.8</ele>
        <time>2024-10-03T07:07:29Z</time>
      </trkpt>
      <trkpt lat="48.67237" lon="1.73783">
        <ele>142.1</ele>
        <time>2024-10-03T07:07:54Z</time>
      </trkpt>
      <trkpt lat="48.67227" lon="1.73782">
        <ele>143.5</ele>
        <time>2024-10-03T07:08:01Z</time>
      </trkpt>
      <trkpt lat="48.67218" lon="1.73783">
        <ele>145.3</ele>
        <time>2024-10-03T07:08:07Z</time>
      </trkpt>
      <trkpt lat="48.67209" lon="1.73783">
        <ele>147.8</ele>
        <time>2024-10-03T07:08:14Z</time>
      </trkpt>
      <trkpt lat="48.67206" lon="1.73769">
        <ele>149.9</ele>
        <time>2024-10-03T07:08:25Z</time>
      </trkpt>
      <trkpt lat="48.67204" lon="1.73755">
        <ele>152.4</ele>
        <time>2024-10-03T07:08:34Z</time>
      </trkpt>
      <trkpt lat="48.67207" lon="1.73741">
        <ele>153.4</ele>
        <time>2024-10-03T07:08:43Z</time>
      </trkpt>
      <trkpt lat="48.67209" lon="1.73727">
        <ele>154.2</ele>
        <time>2024-10-03T07:08:51Z</time>
      </trkpt>
      <trkpt lat="48.67206" lon="1.73713">
        <ele>156.9</ele>
        <time>2024-10-03T07:09:01Z</time>
      </trkpt>
      <trkpt lat="48.67207" lon="1.73699">
        <ele>158.2</ele>
        <time>2024-10-03T07:09:08Z</time>
      </trkpt>
      <trkpt lat="48.6721" lon="1.73687">
        <ele>156.9</ele>
        <time>2024-10-03T07:09:15Z</time>
      </trkpt>
      <trkpt lat="48.67211" lon="1.73673">
        <ele>156.7</ele>
        <time>2024-10-03T07:09:23Z</time>
      </trkpt>
      <trkpt lat="48.67207" lon="1.73659">
        <ele>156.8</ele>
        <time>2024-10-03T07:09:32Z</time>
      </trkpt>
      <trkpt lat="48.67205" lon="1.73646">
        <ele>156</ele>
        <time>2024-10-03T07:09:40Z</time>
      </trkpt>
      <trkpt lat="48.67202" lon="1.73631">
        <ele>155.8</ele>
        <time>2024-10-03T07:09:48Z</time>
      </trkpt>
      <trkpt lat="48.67199" lon="1.73618">
        <ele>156.2</ele>
        <time>2024-10-03T07:09:54Z</time>
      </trkpt>
      <trkpt lat="48.67195" lon="1.73605">
        <ele>157.6</ele>
        <time>2024-10-03T07:10:02Z</time>
      </trkpt>
      <trkpt lat="48.67193" lon="1.73592">
        <ele>158.4</ele>
        <time>2024-10-03T07:10:11Z</time>
      </trkpt>
      <trkpt lat="48.67194" lon="1.73578">
        <ele>157.6</ele>
        <time>2024-10-03T07:10:20Z</time>
      </trkpt>
      <trkpt lat="48.67191" lon="1.73564">
        <ele>157.1</ele>
        <time>2024-10-03T07:10:29Z</time>
      </trkpt>
      <trkpt lat="48.67182" lon="1.7356">
        <ele>159.4</ele>
        <time>2024-10-03T07:10:51Z</time>
      </trkpt>
      <trkpt lat="48.67173" lon="1.73561">
        <ele>162.3</ele>
        <time>2024-10-03T07:11:20Z</time>
      </trkpt>
      <trkpt lat="48.6717" lon="1.73548">
        <ele>162.4</ele>
        <time>2024-10-03T07:11:58Z</time>
      </trkpt>
      <trkpt lat="48.67164" lon="1.73538">
        <ele>163</ele>
        <time>2024-10-03T07:12:03Z</time>
      </trkpt>
      <trkpt lat="48.67157" lon="1.73527">
        <ele>162.9</ele>
        <time>2024-10-03T07:12:09Z</time>
      </trkpt>
      <trkpt lat="48.67151" lon="1.73517">
        <ele>162.5</ele>
        <time>2024-10-03T07:12:19Z</time>
      </trkpt>
      <trkpt lat="48.67143" lon="1.73507">
        <ele>163.1</ele>
        <time>2024-10-03T07:12:30Z</time>
      </trkpt>
      <trkpt lat="48.67138" lon="1.73496">
        <ele>163.9</ele>
        <time>2024-10-03T07:12:38Z</time>
      </trkpt>
      <trkpt lat="48.67134" lon="1.73483">
        <ele>163.7</ele>
        <time>2024-10-03T07:12:47Z</time>
      </trkpt>
      <trkpt lat="48.67128" lon="1.73471">
        <ele>163.7</ele>
        <time>2024-10-03T07:12:55Z</time>
      </trkpt>
      <trkpt lat="48.67121" lon="1.73461">
        <ele>163.8</ele>
        <time>2024-10-03T07:13:03Z</time>
      </trkpt>
      <trkpt lat="48.67114" lon="1.73451">
        <ele>164.5</ele>
        <time>2024-10-03T07:13:13Z</time>
      </trkpt>
      <trkpt lat="48.67109" lon="1.73438">
        <ele>164.6</ele>
        <time>2024-10-03T07:13:21Z</time>
      </trkpt>
      <trkpt lat="48.67103" lon="1.73427">
        <ele>164.1</ele>
        <time>2024-10-03T07:13:27Z</time>
      </trkpt>
      <trkpt lat="48.67098" lon="1.73416">
        <ele>163.9</ele>
        <time>2024-10-03T07:13:35Z</time>
      </trkpt>
      <trkpt lat="48.67091" lon="1.73406">
        <ele>163.2</ele>
        <time>2024-10-03T07:13:42Z</time>
      </trkpt>
      <trkpt lat="48.67082" lon="1.73402">
        <ele>163.7</ele>
        <time>2024-10-03T07:13:49Z</time>
      </trkpt>
      <trkpt lat="48.67073" lon="1.73406">
        <ele>162.9</ele>
        <time>2024-10-03T07:13:59Z</time>
      </trkpt>
      <trkpt lat="48.67065" lon="1.73415">
        <ele>163.4</ele>
        <time>2024-10-03T07:14:10Z</time>
      </trkpt>
      <trkpt lat="48.67064" lon="1.73429">
        <ele>164.2</ele>
        <time>2024-10-03T07:14:22Z</time>
      </trkpt>
      <trkpt lat="48.67057" lon="1.73439">
        <ele>164.6</ele>
        <time>2024-10-03T07:14:28Z</time>
      </trkpt>
      <trkpt lat="48.67053" lon="1.73451">
        <ele>164.3</ele>
        <time>2024-10-03T07:14:33Z</time>
      </trkpt>
      <trkpt lat="48.67049" lon="1.73463">
        <ele>163.5</ele>
        <time>2024-10-03T07:14:41Z</time>
      </trkpt>
      <trkpt lat="48.67047" lon="1.73477">
        <ele>163.2</ele>
        <time>2024-10-03T07:14:50Z</time>
      </trkpt>
      <trkpt lat="48.6704" lon="1.73489">
        <ele>162.3</ele>
        <time>2024-10-03T07:15:00Z</time>
      </trkpt>
      <trkpt lat="48.67035" lon="1.73501">
        <ele>161.7</ele>
        <time>2024-10-03T07:15:09Z</time>
      </trkpt>
      <trkpt lat="48.67027" lon="1.73493">
        <ele>159.8</ele>
        <time>2024-10-03T07:15:40Z</time>
      </trkpt>
      <trkpt lat="48.67022" lon="1.73481">
        <ele>159.3</ele>
        <time>2024-10-03T07:15:53Z</time>
      </trkpt>
      <trkpt lat="48.67017" lon="1.7347">
        <ele>158.2</ele>
        <time>2024-10-03T07:16:06Z</time>
      </trkpt>
      <trkpt lat="48.67013" lon="1.73457">
        <ele>155.4</ele>
        <time>2024-10-03T07:16:17Z</time>
      </trkpt>
      <trkpt lat="48.67006" lon="1.73448">
        <ele>151.7</ele>
        <time>2024-10-03T07:16:33Z</time>
      </trkpt>
      <trkpt lat="48.67003" lon="1.73434">
        <ele>147.7</ele>
        <time>2024-10-03T07:16:52Z</time>
      </trkpt>
      <trkpt lat="48.67" lon="1.7342">
        <ele>143.8</ele>
        <time>2024-10-03T07:17:16Z</time>
      </trkpt>
      <trkpt lat="48.66995" lon="1.73407">
        <ele>142.1</ele>
        <time>2024-10-03T07:17:24Z</time>
      </trkpt>
      <trkpt lat="48.66996" lon="1.73392">
        <ele>139.2</ele>
        <time>2024-10-03T07:17:32Z</time>
      </trkpt>
      <trkpt lat="48.66994" lon="1.73378">
        <ele>138.2</ele>
        <time>2024-10-03T07:17:42Z</time>
      </trkpt>
      <trkpt lat="48.66985" lon="1.73373">
        <ele>138.3</ele>
        <time>2024-10-03T07:17:51Z</time>
      </trkpt>
      <trkpt lat="48.66977" lon="1.73365">
        <ele>137.7</ele>
        <time>2024-10-03T07:17:59Z</time>
      </trkpt>
      <trkpt lat="48.66968" lon="1.73367">
        <ele>137.9</ele>
        <time>2024-10-03T07:18:09Z</time>
      </trkpt>
      <trkpt lat="48.6696" lon="1.73373">
        <ele>138.6</ele>
        <time>2024-10-03T07:18:17Z</time>
      </trkpt>
      <trkpt lat="48.6695" lon="1.73376">
        <ele>138.4</ele>
        <time>2024-10-03T07:18:26Z</time>
      </trkpt>
      <trkpt lat="48.66941" lon="1.73372">
        <ele>138.3</ele>
        <time>2024-10-03T07:18:34Z</time>
      </trkpt>
      <trkpt lat="48.66935" lon="1.73359">
        <ele>138.6</ele>
        <time>2024-10-03T07:18:42Z</time>
      </trkpt>
      <trkpt lat="48.66931" lon="1.73347">
        <ele>139.7</ele>
        <time>2024-10-03T07:18:49Z</time>
      </trkpt>
      <trkpt lat="48.66929" lon="1.73333">
        <ele>140.3</ele>
        <time>2024-10-03T07:18:57Z</time>
      </trkpt>
      <trkpt lat="48.66927" lon="1.73319">
        <ele>140.5</ele>
        <time>2024-10-03T07:19:05Z</time>
      </trkpt>
      <trkpt lat="48.66922" lon="1.73306">
        <ele>141.1</ele>
        <time>2024-10-03T07:19:14Z</time>
      </trkpt>
      <trkpt lat="48.66916" lon="1.73296">
        <ele>140.9</ele>
        <time>2024-10-03T07:19:20Z</time>
      </trkpt>
      <trkpt lat="48.66909" lon="1.73287">
        <ele>140.1</ele>
        <time>2024-10-03T07:19:28Z</time>
      </trkpt>
      <trkpt lat="48.66902" lon="1.73278">
        <ele>139.6</ele>
        <time>2024-10-03T07:19:34Z</time>
      </trkpt>
      <trkpt lat="48.66894" lon="1.73269">
        <ele>139.4</ele>
        <time>2024-10-03T07:19:41Z</time>
      </trkpt>
      <trkpt lat="48.66885" lon="1.73264">
        <ele>139.2</ele>
        <time>2024-10-03T07:19:48Z</time>
      </trkpt>
      <trkpt lat="48.66876" lon="1.73264">
        <ele>138.6</ele>
        <time>2024-10-03T07:19:55Z</time>
      </trkpt>
      <trkpt lat="48.66867" lon="1.73267">
        <ele>138</ele>
        <time>2024-10-03T07:20:02Z</time>
      </trkpt>
      <trkpt lat="48.66857" lon="1.73269">
        <ele>137.8</ele>
        <time>2024-10-03T07:20:09Z</time>
      </trkpt>
      <trkpt lat="48.66847" lon="1.73269">
        <ele>138</ele>
        <time>2024-10-03T07:20:17Z</time>
      </trkpt>
      <trkpt lat="48.66838" lon="1.73265">
        <ele>138</ele>
        <time>2024-10-03T07:20:24Z</time>
      </trkpt>
      <trkpt lat="48.6683" lon="1.73255">
        <ele>137.7</ele>
        <time>2024-10-03T07:20:31Z</time>
      </trkpt>
      <trkpt lat="48.66822" lon="1.73248">
        <ele>138.2</ele>
        <time>2024-10-03T07:20:38Z</time>
      </trkpt>
      <trkpt lat="48.66814" lon="1.7324">
        <ele>138.5</ele>
        <time>2024-10-03T07:20:44Z</time>
      </trkpt>
      <trkpt lat="48.66806" lon="1.7323">
        <ele>138.5</ele>
        <time>2024-10-03T07:20:52Z</time>
      </trkpt>
      <trkpt lat="48.66799" lon="1.73221">
        <ele>138.2</ele>
        <time>2024-10-03T07:20:59Z</time>
      </trkpt>
      <trkpt lat="48.6679" lon="1.73215">
        <ele>138.1</ele>
        <time>2024-10-03T07:21:07Z</time>
      </trkpt>
      <trkpt lat="48.66782" lon="1.73208">
        <ele>137.9</ele>
        <time>2024-10-03T07:21:15Z</time>
      </trkpt>
      <trkpt lat="48.66773" lon="1.732">
        <ele>137.7</ele>
        <time>2024-10-03T07:21:23Z</time>
      </trkpt>
      <trkpt lat="48.66763" lon="1.73194">
        <ele>137.5</ele>
        <time>2024-10-03T07:21:31Z</time>
      </trkpt>
      <trkpt lat="48.66754" lon="1.73189">
        <ele>137.7</ele>
        <time>2024-10-03T07:21:39Z</time>
      </trkpt>
      <trkpt lat="48.66745" lon="1.73184">
        <ele>138.3</ele>
        <time>2024-10-03T07:21:46Z</time>
      </trkpt>
      <trkpt lat="48.66736" lon="1.73177">
        <ele>139.1</ele>
        <time>2024-10-03T07:21:54Z</time>
      </trkpt>
      <trkpt lat="48.66729" lon="1.73168">
        <ele>139.4</ele>
        <time>2024-10-03T07:22:01Z</time>
      </trkpt>
      <trkpt lat="48.66723" lon="1.73156">
        <ele>138.8</ele>
        <time>2024-10-03T07:22:08Z</time>
      </trkpt>
      <trkpt lat="48.66717" lon="1.73146">
        <ele>137.7</ele>
        <time>2024-10-03T07:22:14Z</time>
      </trkpt>
      <trkpt lat="48.66707" lon="1.73145">
        <ele>137.6</ele>
        <time>2024-10-03T07:22:22Z</time>
      </trkpt>
      <trkpt lat="48.66699" lon="1.73155">
        <ele>138.3</ele>
        <time>2024-10-03T07:22:30Z</time>
      </trkpt>
      <trkpt lat="48.66694" lon="1.73168">
        <ele>139</ele>
        <time>2024-10-03T07:22:37Z</time>
      </trkpt>
      <trkpt lat="48.66689" lon="1.73182">
        <ele>139.4</ele>
        <time>2024-10-03T07:22:45Z</time>
      </trkpt>
      <trkpt lat="48.66689" lon="1.73196">
        <ele>140.4</ele>
        <time>2024-10-03T07:22:54Z</time>
      </trkpt>
      <trkpt lat="48.66683" lon="1.73207">
        <ele>140.2</ele>
        <time>2024-10-03T07:23:02Z</time>
      </trkpt>
      <trkpt lat="48.66675" lon="1.73215">
        <ele>139.7</ele>
        <time>2024-10-03T07:23:09Z</time>
      </trkpt>
      <trkpt lat="48.66669" lon="1.73226">
        <ele>139.4</ele>
        <time>2024-10-03T07:23:15Z</time>
      </trkpt>
      <trkpt lat="48.66665" lon="1.73238">
        <ele>138.9</ele>
        <time>2024-10-03T07:23:21Z</time>
      </trkpt>
      <trkpt lat="48.66659" lon="1.7325">
        <ele>138.7</ele>
        <time>2024-10-03T07:23:29Z</time>
      </trkpt>
      <trkpt lat="48.66653" lon="1.73263">
        <ele>138.7</ele>
        <time>2024-10-03T07:23:35Z</time>
      </trkpt>
      <trkpt lat="48.66647" lon="1.73273">
        <ele>138.5</ele>
        <time>2024-10-03T07:23:42Z</time>
      </trkpt>
      <trkpt lat="48.66642" lon="1.73287">
        <ele>138.2</ele>
        <time>2024-10-03T07:23:48Z</time>
      </trkpt>
      <trkpt lat="48.66645" lon="1.73301">
        <ele>138.4</ele>
        <time>2024-10-03T07:23:54Z</time>
      </trkpt>
      <trkpt lat="48.66641" lon="1.73315">
        <ele>138.1</ele>
        <time>2024-10-03T07:24:00Z</time>
      </trkpt>
      <trkpt lat="48.66637" lon="1.73328">
        <ele>138</ele>
        <time>2024-10-03T07:24:09Z</time>
      </trkpt>
      <trkpt lat="48.66635" lon="1.73342">
        <ele>138.1</ele>
        <time>2024-10-03T07:24:15Z</time>
      </trkpt>
      <trkpt lat="48.66629" lon="1.73352">
        <ele>138.4</ele>
        <time>2024-10-03T07:24:21Z</time>
      </trkpt>
      <trkpt lat="48.66623" lon="1.73364">
        <ele>138.6</ele>
        <time>2024-10-03T07:24:28Z</time>
      </trkpt>
      <trkpt lat="48.66615" lon="1.73374">
        <ele>139.2</ele>
        <time>2024-10-03T07:24:35Z</time>
      </trkpt>
      <trkpt lat="48.66613" lon="1.73388">
        <ele>139.8</ele>
        <time>2024-10-03T07:24:42Z</time>
      </trkpt>
      <trkpt lat="48.6661" lon="1.73402">
        <ele>140.1</ele>
        <time>2024-10-03T07:24:49Z</time>
      </trkpt>
      <trkpt lat="48.66604" lon="1.73415">
        <ele>140.5</ele>
        <time>2024-10-03T07:24:57Z</time>
      </trkpt>
      <trkpt lat="48.66606" lon="1.73428">
        <ele>140.3</ele>
        <time>2024-10-03T07:25:03Z</time>
      </trkpt>
      <trkpt lat="48.66603" lon="1.73442">
        <ele>140.3</ele>
        <time>2024-10-03T07:25:13Z</time>
      </trkpt>
      <trkpt lat="48.66597" lon="1.73452">
        <ele>140.5</ele>
        <time>2024-10-03T07:25:42Z</time>
      </trkpt>
      <trkpt lat="48.66588" lon="1.73458">
        <ele>140.8</ele>
        <time>2024-10-03T07:27:02Z</time>
      </trkpt>
      <trkpt lat="48.66579" lon="1.73463">
        <ele>141.4</ele>
        <time>2024-10-03T07:27:18Z</time>
      </trkpt>
      <trkpt lat="48.6657" lon="1.73461">
        <ele>142.2</ele>
        <time>2024-10-03T07:27:28Z</time>
      </trkpt>
      <trkpt lat="48.6656" lon="1.73459">
        <ele>143.1</ele>
        <time>2024-10-03T07:27:36Z</time>
      </trkpt>
      <trkpt lat="48.66554" lon="1.73448">
        <ele>144</ele>
        <time>2024-10-03T07:27:46Z</time>
      </trkpt>
      <trkpt lat="48.66554" lon="1.73434">
        <ele>144.5</ele>
        <time>2024-10-03T07:28:07Z</time>
      </trkpt>
      <trkpt lat="48.66549" lon="1.73422">
        <ele>145.5</ele>
        <time>2024-10-03T07:28:16Z</time>
      </trkpt>
      <trkpt lat="48.66544" lon="1.73409">
        <ele>146.5</ele>
        <time>2024-10-03T07:28:25Z</time>
      </trkpt>
      <trkpt lat="48.6654" lon="1.73397">
        <ele>147.4</ele>
        <time>2024-10-03T07:28:35Z</time>
      </trkpt>
      <trkpt lat="48.66535" lon="1.73385">
        <ele>148.3</ele>
        <time>2024-10-03T07:28:43Z</time>
      </trkpt>
      <trkpt lat="48.66531" lon="1.73371">
        <ele>148.6</ele>
        <time>2024-10-03T07:28:52Z</time>
      </trkpt>
      <trkpt lat="48.66526" lon="1.73359">
        <ele>149.2</ele>
        <time>2024-10-03T07:28:59Z</time>
      </trkpt>
      <trkpt lat="48.66523" lon="1.73344">
        <ele>149.4</ele>
        <time>2024-10-03T07:29:08Z</time>
      </trkpt>
      <trkpt lat="48.66518" lon="1.73331">
        <ele>149.6</ele>
        <time>2024-10-03T07:29:14Z</time>
      </trkpt>
      <trkpt lat="48.66513" lon="1.73319">
        <ele>149</ele>
        <time>2024-10-03T07:29:20Z</time>
      </trkpt>
      <trkpt lat="48.66509" lon="1.73306">
        <ele>148.3</ele>
        <time>2024-10-03T07:29:26Z</time>
      </trkpt>
      <trkpt lat="48.66505" lon="1.73293">
        <ele>147.8</ele>
        <time>2024-10-03T07:29:34Z</time>
      </trkpt>
      <trkpt lat="48.665" lon="1.73281">
        <ele>147.2</ele>
        <time>2024-10-03T07:29:41Z</time>
      </trkpt>
      <trkpt lat="48.66496" lon="1.73269">
        <ele>146.5</ele>
        <time>2024-10-03T07:29:47Z</time>
      </trkpt>
      <trkpt lat="48.6649" lon="1.73257">
        <ele>145.8</ele>
        <time>2024-10-03T07:29:54Z</time>
      </trkpt>
      <trkpt lat="48.66485" lon="1.73244">
        <ele>145.4</ele>
        <time>2024-10-03T07:30:01Z</time>
      </trkpt>
      <trkpt lat="48.66481" lon="1.73232">
        <ele>145.5</ele>
        <time>2024-10-03T07:30:09Z</time>
      </trkpt>
      <trkpt lat="48.66478" lon="1.73219">
        <ele>145.7</ele>
        <time>2024-10-03T07:30:19Z</time>
      </trkpt>
      <trkpt lat="48.66472" lon="1.73207">
        <ele>146.5</ele>
        <time>2024-10-03T07:30:25Z</time>
      </trkpt>
      <trkpt lat="48.66468" lon="1.73192">
        <ele>147.5</ele>
        <time>2024-10-03T07:30:32Z</time>
      </trkpt>
      <trkpt lat="48.66464" lon="1.73178">
        <ele>148.8</ele>
        <time>2024-10-03T07:30:38Z</time>
      </trkpt>
      <trkpt lat="48.66459" lon="1.73166">
        <ele>150.4</ele>
        <time>2024-10-03T07:30:44Z</time>
      </trkpt>
      <trkpt lat="48.66455" lon="1.73154">
        <ele>152.1</ele>
        <time>2024-10-03T07:30:52Z</time>
      </trkpt>
      <trkpt lat="48.66449" lon="1.73142">
        <ele>154</ele>
        <time>2024-10-03T07:30:59Z</time>
      </trkpt>
      <trkpt lat="48.66445" lon="1.73129">
        <ele>155</ele>
        <time>2024-10-03T07:31:07Z</time>
      </trkpt>
      <trkpt lat="48.66441" lon="1.73115">
        <ele>155.5</ele>
        <time>2024-10-03T07:31:15Z</time>
      </trkpt>
      <trkpt lat="48.66435" lon="1.73102">
        <ele>155.8</ele>
        <time>2024-10-03T07:31:22Z</time>
      </trkpt>
      <trkpt lat="48.66431" lon="1.73088">
        <ele>155.7</ele>
        <time>2024-10-03T07:31:29Z</time>
      </trkpt>
      <trkpt lat="48.66427" lon="1.73074">
        <ele>155</ele>
        <time>2024-10-03T07:31:37Z</time>
      </trkpt>
      <trkpt lat="48.66424" lon="1.7306">
        <ele>154</ele>
        <time>2024-10-03T07:31:48Z</time>
      </trkpt>
      <trkpt lat="48.6642" lon="1.73048">
        <ele>153</ele>
        <time>2024-10-03T07:31:56Z</time>
      </trkpt>
      <trkpt lat="48.66415" lon="1.73036">
        <ele>152</ele>
        <time>2024-10-03T07:32:03Z</time>
      </trkpt>
      <trkpt lat="48.66411" lon="1.73024">
        <ele>151</ele>
        <time>2024-10-03T07:32:09Z</time>
      </trkpt>
      <trkpt lat="48.66408" lon="1.73011">
        <ele>150.3</ele>
        <time>2024-10-03T07:32:16Z</time>
      </trkpt>
      <trkpt lat="48.66404" lon="1.72998">
        <ele>149.4</ele>
        <time>2024-10-03T07:32:22Z</time>
      </trkpt>
      <trkpt lat="48.664" lon="1.72983">
        <ele>148.2</ele>
        <time>2024-10-03T07:32:29Z</time>
      </trkpt>
      <trkpt lat="48.66395" lon="1.72969">
        <ele>146.9</ele>
        <time>2024-10-03T07:32:36Z</time>
      </trkpt>
      <trkpt lat="48.6639" lon="1.72956">
        <ele>145.8</ele>
        <time>2024-10-03T07:32:43Z</time>
      </trkpt>
      <trkpt lat="48.66383" lon="1.72944">
        <ele>145</ele>
        <time>2024-10-03T07:32:49Z</time>
      </trkpt>
      <trkpt lat="48.66379" lon="1.72929">
        <ele>144.7</ele>
        <time>2024-10-03T07:32:56Z</time>
      </trkpt>
      <trkpt lat="48.66373" lon="1.72917">
        <ele>144.6</ele>
        <time>2024-10-03T07:33:02Z</time>
      </trkpt>
      <trkpt lat="48.66368" lon="1.72905">
        <ele>144.9</ele>
        <time>2024-10-03T07:33:08Z</time>
      </trkpt>
      <trkpt lat="48.66363" lon="1.72892">
        <ele>145</ele>
        <time>2024-10-03T07:33:15Z</time>
      </trkpt>
      <trkpt lat="48.66358" lon="1.72879">
        <ele>145.1</ele>
        <time>2024-10-03T07:33:22Z</time>
      </trkpt>
      <trkpt lat="48.66353" lon="1.72866">
        <ele>145.3</ele>
        <time>2024-10-03T07:33:28Z</time>
      </trkpt>
      <trkpt lat="48.66347" lon="1.72853">
        <ele>145.8</ele>
        <time>2024-10-03T07:33:34Z</time>
      </trkpt>
      <trkpt lat="48.66344" lon="1.72838">
        <ele>146.4</ele>
        <time>2024-10-03T07:33:42Z</time>
      </trkpt>
      <trkpt lat="48.6634" lon="1.72826">
        <ele>147</ele>
        <time>2024-10-03T07:33:50Z</time>
      </trkpt>
      <trkpt lat="48.66338" lon="1.72812">
        <ele>147.6</ele>
        <time>2024-10-03T07:33:57Z</time>
      </trkpt>
      <trkpt lat="48.66334" lon="1.72799">
        <ele>148.5</ele>
        <time>2024-10-03T07:34:05Z</time>
      </trkpt>
      <trkpt lat="48.66329" lon="1.72785">
        <ele>149.9</ele>
        <time>2024-10-03T07:34:12Z</time>
      </trkpt>
      <trkpt lat="48.66324" lon="1.72772">
        <ele>151.4</ele>
        <time>2024-10-03T07:34:20Z</time>
      </trkpt>
      <trkpt lat="48.66319" lon="1.72759">
        <ele>152.9</ele>
        <time>2024-10-03T07:34:29Z</time>
      </trkpt>
      <trkpt lat="48.66315" lon="1.72746">
        <ele>154.3</ele>
        <time>2024-10-03T07:34:36Z</time>
      </trkpt>
      <trkpt lat="48.6631" lon="1.72734">
        <ele>155.8</ele>
        <time>2024-10-03T07:34:43Z</time>
      </trkpt>
      <trkpt lat="48.66305" lon="1.7272">
        <ele>157.1</ele>
        <time>2024-10-03T07:34:52Z</time>
      </trkpt>
      <trkpt lat="48.66301" lon="1.72707">
        <ele>157.8</ele>
        <time>2024-10-03T07:35:00Z</time>
      </trkpt>
      <trkpt lat="48.66297" lon="1.72695">
        <ele>158.3</ele>
        <time>2024-10-03T07:35:08Z</time>
      </trkpt>
      <trkpt lat="48.66293" lon="1.72682">
        <ele>158.4</ele>
        <time>2024-10-03T07:35:16Z</time>
      </trkpt>
      <trkpt lat="48.66289" lon="1.72668">
        <ele>158.6</ele>
        <time>2024-10-03T07:35:22Z</time>
      </trkpt>
      <trkpt lat="48.66285" lon="1.72656">
        <ele>158.4</ele>
        <time>2024-10-03T07:35:31Z</time>
      </trkpt>
      <trkpt lat="48.66279" lon="1.72644">
        <ele>158.2</ele>
        <time>2024-10-03T07:35:39Z</time>
      </trkpt>
      <trkpt lat="48.66274" lon="1.72632">
        <ele>157.8</ele>
        <time>2024-10-03T07:35:46Z</time>
      </trkpt>
      <trkpt lat="48.66271" lon="1.72619">
        <ele>157.5</ele>
        <time>2024-10-03T07:35:52Z</time>
      </trkpt>
      <trkpt lat="48.66266" lon="1.72607">
        <ele>157.3</ele>
        <time>2024-10-03T07:35:59Z</time>
      </trkpt>
      <trkpt lat="48.66262" lon="1.72595">
        <ele>157</ele>
        <time>2024-10-03T07:36:05Z</time>
      </trkpt>
      <trkpt lat="48.66258" lon="1.72581">
        <ele>156.6</ele>
        <time>2024-10-03T07:36:12Z</time>
      </trkpt>
      <trkpt lat="48.66254" lon="1.72568">
        <ele>155.7</ele>
        <time>2024-10-03T07:36:20Z</time>
      </trkpt>
      <trkpt lat="48.66249" lon="1.72553">
        <ele>154.9</ele>
        <time>2024-10-03T07:36:27Z</time>
      </trkpt>
      <trkpt lat="48.66245" lon="1.7254">
        <ele>154.1</ele>
        <time>2024-10-03T07:36:33Z</time>
      </trkpt>
      <trkpt lat="48.66241" lon="1.72528">
        <ele>153.3</ele>
        <time>2024-10-03T07:36:39Z</time>
      </trkpt>
      <trkpt lat="48.66235" lon="1.72515">
        <ele>152.2</ele>
        <time>2024-10-03T07:36:46Z</time>
      </trkpt>
      <trkpt lat="48.66231" lon="1.72503">
        <ele>151</ele>
        <time>2024-10-03T07:36:52Z</time>
      </trkpt>
      <trkpt lat="48.66227" lon="1.7249">
        <ele>149.8</ele>
        <time>2024-10-03T07:36:59Z</time>
      </trkpt>
      <trkpt lat="48.66224" lon="1.72477">
        <ele>148.5</ele>
        <time>2024-10-03T07:37:06Z</time>
      </trkpt>
      <trkpt lat="48.66221" lon="1.72463">
        <ele>147.7</ele>
        <time>2024-10-03T07:37:13Z</time>
      </trkpt>
      <trkpt lat="48.66219" lon="1.72448">
        <ele>147.2</ele>
        <time>2024-10-03T07:37:20Z</time>
      </trkpt>
      <trkpt lat="48.66216" lon="1.72433">
        <ele>146.4</ele>
        <time>2024-10-03T07:37:27Z</time>
      </trkpt>
      <trkpt lat="48.66215" lon="1.72419">
        <ele>145.4</ele>
        <time>2024-10-03T07:37:34Z</time>
      </trkpt>
      <trkpt lat="48.66213" lon="1.72405">
        <ele>144.9</ele>
        <time>2024-10-03T07:37:42Z</time>
      </trkpt>
      <trkpt lat="48.6621" lon="1.72391">
        <ele>144.5</ele>
        <time>2024-10-03T07:37:48Z</time>
      </trkpt>
      <trkpt lat="48.66208" lon="1.72376">
        <ele>144.3</ele>
        <time>2024-10-03T07:37:54Z</time>
      </trkpt>
      <trkpt lat="48.66207" lon="1.72362">
        <ele>144</ele>
        <time>2024-10-03T07:38:01Z</time>
      </trkpt>
      <trkpt lat="48.66204" lon="1.72349">
        <ele>143.8</ele>
        <time>2024-10-03T07:38:07Z</time>
      </trkpt>
      <trkpt lat="48.66202" lon="1.72334">
        <ele>143.7</ele>
        <time>2024-10-03T07:38:14Z</time>
      </trkpt>
      <trkpt lat="48.66204" lon="1.72321">
        <ele>143.5</ele>
        <time>2024-10-03T07:38:21Z</time>
      </trkpt>
      <trkpt lat="48.66202" lon="1.72307">
        <ele>143.5</ele>
        <time>2024-10-03T07:38:28Z</time>
      </trkpt>
      <trkpt lat="48.66203" lon="1.72293">
        <ele>143.1</ele>
        <time>2024-10-03T07:38:36Z</time>
      </trkpt>
      <trkpt lat="48.66201" lon="1.7228">
        <ele>142.8</ele>
        <time>2024-10-03T07:38:43Z</time>
      </trkpt>
      <trkpt lat="48.662" lon="1.72266">
        <ele>142.7</ele>
        <time>2024-10-03T07:38:49Z</time>
      </trkpt>
      <trkpt lat="48.66198" lon="1.72252">
        <ele>142.7</ele>
        <time>2024-10-03T07:38:55Z</time>
      </trkpt>
      <trkpt lat="48.66196" lon="1.72238">
        <ele>142.5</ele>
        <time>2024-10-03T07:39:01Z</time>
      </trkpt>
      <trkpt lat="48.66194" lon="1.72224">
        <ele>142.1</ele>
        <time>2024-10-03T07:39:08Z</time>
      </trkpt>
      <trkpt lat="48.66193" lon="1.7221">
        <ele>142</ele>
        <time>2024-10-03T07:39:15Z</time>
      </trkpt>
      <trkpt lat="48.66192" lon="1.72195">
        <ele>142</ele>
        <time>2024-10-03T07:39:22Z</time>
      </trkpt>
      <trkpt lat="48.66191" lon="1.7218">
        <ele>141.5</ele>
        <time>2024-10-03T07:39:29Z</time>
      </trkpt>
      <trkpt lat="48.66188" lon="1.72165">
        <ele>141</ele>
        <time>2024-10-03T07:39:36Z</time>
      </trkpt>
      <trkpt lat="48.66184" lon="1.72151">
        <ele>140.6</ele>
        <time>2024-10-03T07:39:42Z</time>
      </trkpt>
      <trkpt lat="48.66184" lon="1.72135">
        <ele>140.2</ele>
        <time>2024-10-03T07:39:49Z</time>
      </trkpt>
      <trkpt lat="48.66182" lon="1.7212">
        <ele>139.8</ele>
        <time>2024-10-03T07:39:54Z</time>
      </trkpt>
      <trkpt lat="48.6618" lon="1.72107">
        <ele>139.4</ele>
        <time>2024-10-03T07:40:00Z</time>
      </trkpt>
      <trkpt lat="48.6618" lon="1.72091">
        <ele>139.2</ele>
        <time>2024-10-03T07:40:07Z</time>
      </trkpt>
      <trkpt lat="48.66178" lon="1.72078">
        <ele>138.6</ele>
        <time>2024-10-03T07:40:14Z</time>
      </trkpt>
      <trkpt lat="48.66176" lon="1.72063">
        <ele>137.5</ele>
        <time>2024-10-03T07:40:25Z</time>
      </trkpt>
      <trkpt lat="48.66172" lon="1.7205">
        <ele>136.8</ele>
        <time>2024-10-03T07:40:52Z</time>
      </trkpt>
      <trkpt lat="48.66169" lon="1.72036">
        <ele>136.3</ele>
        <time>2024-10-03T07:41:00Z</time>
      </trkpt>
      <trkpt lat="48.66169" lon="1.72023">
        <ele>136.2</ele>
        <time>2024-10-03T07:41:08Z</time>
      </trkpt>
      <trkpt lat="48.66168" lon="1.72008">
        <ele>136.7</ele>
        <time>2024-10-03T07:41:17Z</time>
      </trkpt>
      <trkpt lat="48.66165" lon="1.71994">
        <ele>137</ele>
        <time>2024-10-03T07:41:25Z</time>
      </trkpt>
      <trkpt lat="48.66164" lon="1.7198">
        <ele>137.1</ele>
        <time>2024-10-03T07:41:33Z</time>
      </trkpt>
      <trkpt lat="48.66164" lon="1.71966">
        <ele>137.3</ele>
        <time>2024-10-03T07:41:41Z</time>
      </trkpt>
      <trkpt lat="48.66162" lon="1.71951">
        <ele>137.9</ele>
        <time>2024-10-03T07:41:49Z</time>
      </trkpt>
      <trkpt lat="48.66161" lon="1.71937">
        <ele>138.5</ele>
        <time>2024-10-03T07:41:56Z</time>
      </trkpt>
      <trkpt lat="48.66165" lon="1.71925">
        <ele>138.8</ele>
        <time>2024-10-03T07:42:03Z</time>
      </trkpt>
      <trkpt lat="48.66171" lon="1.71913">
        <ele>138.8</ele>
        <time>2024-10-03T07:42:12Z</time>
      </trkpt>
      <trkpt lat="48.66177" lon="1.71903">
        <ele>138.4</ele>
        <time>2024-10-03T07:42:21Z</time>
      </trkpt>
      <trkpt lat="48.66186" lon="1.719">
        <ele>137.9</ele>
        <time>2024-10-03T07:42:27Z</time>
      </trkpt>
      <trkpt lat="48.66195" lon="1.71894">
        <ele>137.2</ele>
        <time>2024-10-03T07:42:35Z</time>
      </trkpt>
      <trkpt lat="48.662" lon="1.71882">
        <ele>136.8</ele>
        <time>2024-10-03T07:42:47Z</time>
      </trkpt>
      <trkpt lat="48.66209" lon="1.71878">
        <ele>136.5</ele>
        <time>2024-10-03T07:42:55Z</time>
      </trkpt>
      <trkpt lat="48.66219" lon="1.71873">
        <ele>136.1</ele>
        <time>2024-10-03T07:43:01Z</time>
      </trkpt>
      <trkpt lat="48.66228" lon="1.71873">
        <ele>135.6</ele>
        <time>2024-10-03T07:43:07Z</time>
      </trkpt>
      <trkpt lat="48.66238" lon="1.7187">
        <ele>134.9</ele>
        <time>2024-10-03T07:43:13Z</time>
      </trkpt>
      <trkpt lat="48.66247" lon="1.7187">
        <ele>134.2</ele>
        <time>2024-10-03T07:43:19Z</time>
      </trkpt>
      <trkpt lat="48.66257" lon="1.71865">
        <ele>133.8</ele>
        <time>2024-10-03T07:43:26Z</time>
      </trkpt>
      <trkpt lat="48.66267" lon="1.71863">
        <ele>133.4</ele>
        <time>2024-10-03T07:43:33Z</time>
      </trkpt>
      <trkpt lat="48.66275" lon="1.71857">
        <ele>133.1</ele>
        <time>2024-10-03T07:43:40Z</time>
      </trkpt>
      <trkpt lat="48.66285" lon="1.71852">
        <ele>133</ele>
        <time>2024-10-03T07:43:47Z</time>
      </trkpt>
      <trkpt lat="48.66294" lon="1.71853">
        <ele>133</ele>
        <time>2024-10-03T07:43:54Z</time>
      </trkpt>
      <trkpt lat="48.66303" lon="1.7185">
        <ele>133</ele>
        <time>2024-10-03T07:45:34Z</time>
      </trkpt>
      <trkpt lat="48.66312" lon="1.71847">
        <ele>133.1</ele>
        <time>2024-10-03T07:45:42Z</time>
      </trkpt>
      <trkpt lat="48.66321" lon="1.7185">
        <ele>133.2</ele>
        <time>2024-10-03T07:45:52Z</time>
      </trkpt>
      <trkpt lat="48.66331" lon="1.71846">
        <ele>133.5</ele>
        <time>2024-10-03T07:45:59Z</time>
      </trkpt>
      <trkpt lat="48.66341" lon="1.71847">
        <ele>133.4</ele>
        <time>2024-10-03T07:46:07Z</time>
      </trkpt>
      <trkpt lat="48.6635" lon="1.71841">
        <ele>133.3</ele>
        <time>2024-10-03T07:46:14Z</time>
      </trkpt>
      <trkpt lat="48.66359" lon="1.71834">
        <ele>133.1</ele>
        <time>2024-10-03T07:46:21Z</time>
      </trkpt>
      <trkpt lat="48.66367" lon="1.71825">
        <ele>133</ele>
        <time>2024-10-03T07:46:29Z</time>
      </trkpt>
      <trkpt lat="48.66376" lon="1.71818">
        <ele>133</ele>
        <time>2024-10-03T07:46:36Z</time>
      </trkpt>
      <trkpt lat="48.66386" lon="1.71814">
        <ele>133</ele>
        <time>2024-10-03T07:46:43Z</time>
      </trkpt>
      <trkpt lat="48.66394" lon="1.71809">
        <ele>133</ele>
        <time>2024-10-03T07:46:50Z</time>
      </trkpt>
      <trkpt lat="48.66404" lon="1.71804">
        <ele>133</ele>
        <time>2024-10-03T07:46:59Z</time>
      </trkpt>
      <trkpt lat="48.66413" lon="1.718">
        <ele>133</ele>
        <time>2024-10-03T07:47:08Z</time>
      </trkpt>
      <trkpt lat="48.66423" lon="1.71797">
        <ele>133.2</ele>
        <time>2024-10-03T07:47:16Z</time>
      </trkpt>
      <trkpt lat="48.66433" lon="1.71795">
        <ele>133.6</ele>
        <time>2024-10-03T07:47:23Z</time>
      </trkpt>
      <trkpt lat="48.66443" lon="1.71792">
        <ele>133.9</ele>
        <time>2024-10-03T07:47:31Z</time>
      </trkpt>
      <trkpt lat="48.66453" lon="1.7179">
        <ele>134</ele>
        <time>2024-10-03T07:47:39Z</time>
      </trkpt>
      <trkpt lat="48.66461" lon="1.71781">
        <ele>134</ele>
        <time>2024-10-03T07:47:48Z</time>
      </trkpt>
      <trkpt lat="48.66469" lon="1.71776">
        <ele>134</ele>
        <time>2024-10-03T07:47:55Z</time>
      </trkpt>
      <trkpt lat="48.66478" lon="1.71774">
        <ele>134.2</ele>
        <time>2024-10-03T07:48:01Z</time>
      </trkpt>
      <trkpt lat="48.66487" lon="1.71768">
        <ele>134.5</ele>
        <time>2024-10-03T07:48:08Z</time>
      </trkpt>
      <trkpt lat="48.66496" lon="1.71766">
        <ele>134.9</ele>
        <time>2024-10-03T07:48:15Z</time>
      </trkpt>
      <trkpt lat="48.66505" lon="1.71763">
        <ele>135.1</ele>
        <time>2024-10-03T07:48:21Z</time>
      </trkpt>
      <trkpt lat="48.66514" lon="1.71757">
        <ele>135.1</ele>
        <time>2024-10-03T07:48:28Z</time>
      </trkpt>
      <trkpt lat="48.66523" lon="1.71751">
        <ele>135</ele>
        <time>2024-10-03T07:48:34Z</time>
      </trkpt>
      <trkpt lat="48.66531" lon="1.71746">
        <ele>135.1</ele>
        <time>2024-10-03T07:48:41Z</time>
      </trkpt>
      <trkpt lat="48.6654" lon="1.71741">
        <ele>135.5</ele>
        <time>2024-10-03T07:48:48Z</time>
      </trkpt>
      <trkpt lat="48.66549" lon="1.7174">
        <ele>135.8</ele>
        <time>2024-10-03T07:48:55Z</time>
      </trkpt>
      <trkpt lat="48.66558" lon="1.71737">
        <ele>136.1</ele>
        <time>2024-10-03T07:49:04Z</time>
      </trkpt>
      <trkpt lat="48.66567" lon="1.7173">
        <ele>136.4</ele>
        <time>2024-10-03T07:49:12Z</time>
      </trkpt>
      <trkpt lat="48.66576" lon="1.71727">
        <ele>136.7</ele>
        <time>2024-10-03T07:49:19Z</time>
      </trkpt>
      <trkpt lat="48.66586" lon="1.71723">
        <ele>137.2</ele>
        <time>2024-10-03T07:49:26Z</time>
      </trkpt>
      <trkpt lat="48.66595" lon="1.7172">
        <ele>137.9</ele>
        <time>2024-10-03T07:49:32Z</time>
      </trkpt>
      <trkpt lat="48.66605" lon="1.71716">
        <ele>138.6</ele>
        <time>2024-10-03T07:49:38Z</time>
      </trkpt>
      <trkpt lat="48.66614" lon="1.7171">
        <ele>139</ele>
        <time>2024-10-03T07:49:44Z</time>
      </trkpt>
      <trkpt lat="48.66624" lon="1.71706">
        <ele>139</ele>
        <time>2024-10-03T07:49:52Z</time>
      </trkpt>
      <trkpt lat="48.66632" lon="1.71698">
        <ele>139</ele>
        <time>2024-10-03T07:50:05Z</time>
      </trkpt>
      <trkpt lat="48.66641" lon="1.71699">
        <ele>139.1</ele>
        <time>2024-10-03T07:50:12Z</time>
      </trkpt>
      <trkpt lat="48.6665" lon="1.71698">
        <ele>139.4</ele>
        <time>2024-10-03T07:50:20Z</time>
      </trkpt>
      <trkpt lat="48.6666" lon="1.71699">
        <ele>139.8</ele>
        <time>2024-10-03T07:50:29Z</time>
      </trkpt>
      <trkpt lat="48.66669" lon="1.71696">
        <ele>140.2</ele>
        <time>2024-10-03T07:50:36Z</time>
      </trkpt>
      <trkpt lat="48.66678" lon="1.71688">
        <ele>140.8</ele>
        <time>2024-10-03T07:50:43Z</time>
      </trkpt>
      <trkpt lat="48.66687" lon="1.7168">
        <ele>141.5</ele>
        <time>2024-10-03T07:50:52Z</time>
      </trkpt>
      <trkpt lat="48.66696" lon="1.71678">
        <ele>142.2</ele>
        <time>2024-10-03T07:50:59Z</time>
      </trkpt>
      <trkpt lat="48.66705" lon="1.71683">
        <ele>143.2</ele>
        <time>2024-10-03T07:51:07Z</time>
      </trkpt>
      <trkpt lat="48.66715" lon="1.71683">
        <ele>144.2</ele>
        <time>2024-10-03T07:51:15Z</time>
      </trkpt>
      <trkpt lat="48.66724" lon="1.71678">
        <ele>145.3</ele>
        <time>2024-10-03T07:51:23Z</time>
      </trkpt>
      <trkpt lat="48.66732" lon="1.7167">
        <ele>146.8</ele>
        <time>2024-10-03T07:51:31Z</time>
      </trkpt>
      <trkpt lat="48.6674" lon="1.71665">
        <ele>148.2</ele>
        <time>2024-10-03T07:51:38Z</time>
      </trkpt>
      <trkpt lat="48.66749" lon="1.71659">
        <ele>149.3</ele>
        <time>2024-10-03T07:51:46Z</time>
      </trkpt>
      <trkpt lat="48.66758" lon="1.71656">
        <ele>150.9</ele>
        <time>2024-10-03T07:51:54Z</time>
      </trkpt>
      <trkpt lat="48.66768" lon="1.71654">
        <ele>152.6</ele>
        <time>2024-10-03T07:52:02Z</time>
      </trkpt>
      <trkpt lat="48.66777" lon="1.7165">
        <ele>154.2</ele>
        <time>2024-10-03T07:52:10Z</time>
      </trkpt>
      <trkpt lat="48.66784" lon="1.71642">
        <ele>154.6</ele>
        <time>2024-10-03T07:52:19Z</time>
      </trkpt>
      <trkpt lat="48.66794" lon="1.71641">
        <ele>155.2</ele>
        <time>2024-10-03T07:52:25Z</time>
      </trkpt>
      <trkpt lat="48.66804" lon="1.71638">
        <ele>155.8</ele>
        <time>2024-10-03T07:52:32Z</time>
      </trkpt>
      <trkpt lat="48.66813" lon="1.71634">
        <ele>155.4</ele>
        <time>2024-10-03T07:52:39Z</time>
      </trkpt>
      <trkpt lat="48.66823" lon="1.71631">
        <ele>154.9</ele>
        <time>2024-10-03T07:52:46Z</time>
      </trkpt>
      <trkpt lat="48.66832" lon="1.71632">
        <ele>154.5</ele>
        <time>2024-10-03T07:52:54Z</time>
      </trkpt>
      <trkpt lat="48.66842" lon="1.71631">
        <ele>153.2</ele>
        <time>2024-10-03T07:53:02Z</time>
      </trkpt>
      <trkpt lat="48.66851" lon="1.71625">
        <ele>151.5</ele>
        <time>2024-10-03T07:53:08Z</time>
      </trkpt>
      <trkpt lat="48.66857" lon="1.71615">
        <ele>149.9</ele>
        <time>2024-10-03T07:53:14Z</time>
      </trkpt>
      <trkpt lat="48.66866" lon="1.71608">
        <ele>148.4</ele>
        <time>2024-10-03T07:53:23Z</time>
      </trkpt>
      <trkpt lat="48.66876" lon="1.71602">
        <ele>147.5</ele>
        <time>2024-10-03T07:53:30Z</time>
      </trkpt>
      <trkpt lat="48.66885" lon="1.71597">
        <ele>146.7</ele>
        <time>2024-10-03T07:53:37Z</time>
      </trkpt>
      <trkpt lat="48.66893" lon="1.71591">
        <ele>146</ele>
        <time>2024-10-03T07:53:44Z</time>
      </trkpt>
      <trkpt lat="48.66902" lon="1.71586">
        <ele>145.2</ele>
        <time>2024-10-03T07:53:50Z</time>
      </trkpt>
      <trkpt lat="48.6691" lon="1.7158">
        <ele>144.4</ele>
        <time>2024-10-03T07:53:56Z</time>
      </trkpt>
      <trkpt lat="48.66918" lon="1.71573">
        <ele>144</ele>
        <time>2024-10-03T07:54:01Z</time>
      </trkpt>
      <trkpt lat="48.66927" lon="1.71569">
        <ele>144</ele>
        <time>2024-10-03T07:54:07Z</time>
      </trkpt>
      <trkpt lat="48.66935" lon="1.71562">
        <ele>144</ele>
        <time>2024-10-03T07:54:13Z</time>
      </trkpt>
      <trkpt lat="48.66945" lon="1.7156">
        <ele>144</ele>
        <time>2024-10-03T07:54:20Z</time>
      </trkpt>
      <trkpt lat="48.66954" lon="1.71558">
        <ele>144</ele>
        <time>2024-10-03T07:54:26Z</time>
      </trkpt>
      <trkpt lat="48.66963" lon="1.7155">
        <ele>143.8</ele>
        <time>2024-10-03T07:54:34Z</time>
      </trkpt>
      <trkpt lat="48.66972" lon="1.71542">
        <ele>143.5</ele>
        <time>2024-10-03T07:54:39Z</time>
      </trkpt>
      <trkpt lat="48.6698" lon="1.71535">
        <ele>143.8</ele>
        <time>2024-10-03T07:54:47Z</time>
      </trkpt>
      <trkpt lat="48.66988" lon="1.71529">
        <ele>144.2</ele>
        <time>2024-10-03T07:54:54Z</time>
      </trkpt>
      <trkpt lat="48.66996" lon="1.71523">
        <ele>144.6</ele>
        <time>2024-10-03T07:55:01Z</time>
      </trkpt>
      <trkpt lat="48.67005" lon="1.71518">
        <ele>144.8</ele>
        <time>2024-10-03T07:55:08Z</time>
      </trkpt>
      <trkpt lat="48.67013" lon="1.71511">
        <ele>144.9</ele>
        <time>2024-10-03T07:55:15Z</time>
      </trkpt>
      <trkpt lat="48.67022" lon="1.71505">
        <ele>145</ele>
        <time>2024-10-03T07:55:21Z</time>
      </trkpt>
      <trkpt lat="48.6703" lon="1.71495">
        <ele>144.9</ele>
        <time>2024-10-03T07:55:27Z</time>
      </trkpt>
      <trkpt lat="48.67038" lon="1.71489">
        <ele>145</ele>
        <time>2024-10-03T07:55:33Z</time>
      </trkpt>
      <trkpt lat="48.67048" lon="1.71484">
        <ele>145.1</ele>
        <time>2024-10-03T07:55:40Z</time>
      </trkpt>
      <trkpt lat="48.67056" lon="1.71481">
        <ele>145.4</ele>
        <time>2024-10-03T07:55:47Z</time>
      </trkpt>
      <trkpt lat="48.67065" lon="1.71476">
        <ele>145.8</ele>
        <time>2024-10-03T07:55:54Z</time>
      </trkpt>
      <trkpt lat="48.67074" lon="1.71469">
        <ele>146.3</ele>
        <time>2024-10-03T07:56:02Z</time>
      </trkpt>
      <trkpt lat="48.67082" lon="1.7146">
        <ele>146.9</ele>
        <time>2024-10-03T07:56:09Z</time>
      </trkpt>
      <trkpt lat="48.67092" lon="1.71457">
        <ele>147.3</ele>
        <time>2024-10-03T07:56:17Z</time>
      </trkpt>
      <trkpt lat="48.67101" lon="1.7145">
        <ele>147.6</ele>
        <time>2024-10-03T07:56:24Z</time>
      </trkpt>
      <trkpt lat="48.67109" lon="1.7144">
        <ele>148.1</ele>
        <time>2024-10-03T07:56:32Z</time>
      </trkpt>
      <trkpt lat="48.67117" lon="1.71433">
        <ele>148.8</ele>
        <time>2024-10-03T07:56:39Z</time>
      </trkpt>
      <trkpt lat="48.67126" lon="1.7143">
        <ele>149.3</ele>
        <time>2024-10-03T07:56:45Z</time>
      </trkpt>
      <trkpt lat="48.67136" lon="1.71425">
        <ele>149.8</ele>
        <time>2024-10-03T07:56:53Z</time>
      </trkpt>
      <trkpt lat="48.67145" lon="1.71422">
        <ele>150.6</ele>
        <time>2024-10-03T07:57:02Z</time>
      </trkpt>
      <trkpt lat="48.67152" lon="1.71432">
        <ele>151.1</ele>
        <time>2024-10-03T08:02:16Z</time>
      </trkpt>
      <trkpt lat="48.67159" lon="1.71444">
        <ele>151.4</ele>
        <time>2024-10-03T08:02:25Z</time>
      </trkpt>
      <trkpt lat="48.67167" lon="1.7145">
        <ele>152.1</ele>
        <time>2024-10-03T08:02:31Z</time>
      </trkpt>
      <trkpt lat="48.67175" lon="1.7146">
        <ele>152.7</ele>
        <time>2024-10-03T08:02:37Z</time>
      </trkpt>
      <trkpt lat="48.67182" lon="1.71471">
        <ele>153.1</ele>
        <time>2024-10-03T08:02:44Z</time>
      </trkpt>
      <trkpt lat="48.67189" lon="1.71482">
        <ele>153.2</ele>
        <time>2024-10-03T08:02:51Z</time>
      </trkpt>
      <trkpt lat="48.67194" lon="1.71494">
        <ele>153.2</ele>
        <time>2024-10-03T08:02:58Z</time>
      </trkpt>
      <trkpt lat="48.67202" lon="1.71501">
        <ele>153.5</ele>
        <time>2024-10-03T08:03:05Z</time>
      </trkpt>
      <trkpt lat="48.67208" lon="1.71513">
        <ele>153.5</ele>
        <time>2024-10-03T08:03:13Z</time>
      </trkpt>
      <trkpt lat="48.67215" lon="1.71525">
        <ele>153.5</ele>
        <time>2024-10-03T08:03:20Z</time>
      </trkpt>
      <trkpt lat="48.67222" lon="1.71534">
        <ele>154</ele>
        <time>2024-10-03T08:03:27Z</time>
      </trkpt>
      <trkpt lat="48.67227" lon="1.71546">
        <ele>154.4</ele>
        <time>2024-10-03T08:03:36Z</time>
      </trkpt>
      <trkpt lat="48.67235" lon="1.71554">
        <ele>155</ele>
        <time>2024-10-03T08:03:43Z</time>
      </trkpt>
      <trkpt lat="48.67243" lon="1.71562">
        <ele>155.2</ele>
        <time>2024-10-03T08:03:50Z</time>
      </trkpt>
      <trkpt lat="48.67251" lon="1.71571">
        <ele>155.5</ele>
        <time>2024-10-03T08:03:57Z</time>
      </trkpt>
      <trkpt lat="48.67259" lon="1.7158">
        <ele>156.1</ele>
        <time>2024-10-03T08:04:03Z</time>
      </trkpt>
      <trkpt lat="48.67266" lon="1.71587">
        <ele>156.8</ele>
        <time>2024-10-03T08:04:09Z</time>
      </trkpt>
      <trkpt lat="48.67274" lon="1.71594">
        <ele>157.6</ele>
        <time>2024-10-03T08:04:16Z</time>
      </trkpt>
      <trkpt lat="48.6728" lon="1.71606">
        <ele>158.3</ele>
        <time>2024-10-03T08:04:24Z</time>
      </trkpt>
      <trkpt lat="48.67285" lon="1.71617">
        <ele>158.4</ele>
        <time>2024-10-03T08:04:31Z</time>
      </trkpt>
      <trkpt lat="48.67293" lon="1.71624">
        <ele>158.7</ele>
        <time>2024-10-03T08:04:37Z</time>
      </trkpt>
      <trkpt lat="48.67301" lon="1.71631">
        <ele>159.1</ele>
        <time>2024-10-03T08:04:44Z</time>
      </trkpt>
      <trkpt lat="48.67307" lon="1.71642">
        <ele>158.9</ele>
        <time>2024-10-03T08:04:51Z</time>
      </trkpt>
      <trkpt lat="48.67315" lon="1.71649">
        <ele>159.2</ele>
        <time>2024-10-03T08:05:00Z</time>
      </trkpt>
      <trkpt lat="48.67322" lon="1.71657">
        <ele>159.1</ele>
        <time>2024-10-03T08:05:07Z</time>
      </trkpt>
      <trkpt lat="48.6733" lon="1.71665">
        <ele>159</ele>
        <time>2024-10-03T08:05:13Z</time>
      </trkpt>
      <trkpt lat="48.67335" lon="1.71677">
        <ele>158.4</ele>
        <time>2024-10-03T08:05:19Z</time>
      </trkpt>
      <trkpt lat="48.67343" lon="1.71686">
        <ele>157.8</ele>
        <time>2024-10-03T08:05:25Z</time>
      </trkpt>
      <trkpt lat="48.67349" lon="1.71697">
        <ele>156.9</ele>
        <time>2024-10-03T08:05:31Z</time>
      </trkpt>
      <trkpt lat="48.67355" lon="1.71707">
        <ele>156.5</ele>
        <time>2024-10-03T08:05:37Z</time>
      </trkpt>
      <trkpt lat="48.67362" lon="1.71718">
        <ele>156.1</ele>
        <time>2024-10-03T08:05:44Z</time>
      </trkpt>
      <trkpt lat="48.6737" lon="1.71727">
        <ele>155.6</ele>
        <time>2024-10-03T08:05:51Z</time>
      </trkpt>
      <trkpt lat="48.67378" lon="1.71735">
        <ele>155.1</ele>
        <time>2024-10-03T08:05:59Z</time>
      </trkpt>
      <trkpt lat="48.67387" lon="1.71744">
        <ele>154.4</ele>
        <time>2024-10-03T08:06:08Z</time>
      </trkpt>
      <trkpt lat="48.67396" lon="1.71749">
        <ele>154.3</ele>
        <time>2024-10-03T08:06:14Z</time>
      </trkpt>
      <trkpt lat="48.67405" lon="1.71755">
        <ele>154.3</ele>
        <time>2024-10-03T08:06:21Z</time>
      </trkpt>
      <trkpt lat="48.67412" lon="1.71765">
        <ele>153.9</ele>
        <time>2024-10-03T08:06:27Z</time>
      </trkpt>
      <trkpt lat="48.67419" lon="1.71775">
        <ele>153.2</ele>
        <time>2024-10-03T08:06:33Z</time>
      </trkpt>
      <trkpt lat="48.67426" lon="1.71785">
        <ele>152.7</ele>
        <time>2024-10-03T08:06:41Z</time>
      </trkpt>
      <trkpt lat="48.67434" lon="1.71794">
        <ele>152.4</ele>
        <time>2024-10-03T08:06:48Z</time>
      </trkpt>
      <trkpt lat="48.6744" lon="1.71804">
        <ele>152.1</ele>
        <time>2024-10-03T08:06:53Z</time>
      </trkpt>
      <trkpt lat="48.67447" lon="1.71815">
        <ele>151.5</ele>
        <time>2024-10-03T08:07:00Z</time>
      </trkpt>
      <trkpt lat="48.67455" lon="1.71825">
        <ele>150.8</ele>
        <time>2024-10-03T08:07:08Z</time>
      </trkpt>
      <trkpt lat="48.67463" lon="1.71831">
        <ele>150.4</ele>
        <time>2024-10-03T08:07:15Z</time>
      </trkpt>
      <trkpt lat="48.67467" lon="1.71843">
        <ele>149.9</ele>
        <time>2024-10-03T08:07:25Z</time>
      </trkpt>
      <trkpt lat="48.67475" lon="1.7185">
        <ele>149.3</ele>
        <time>2024-10-03T08:07:32Z</time>
      </trkpt>
      <trkpt lat="48.67481" lon="1.71861">
        <ele>148.7</ele>
        <time>2024-10-03T08:07:41Z</time>
      </trkpt>
      <trkpt lat="48.67486" lon="1.71874">
        <ele>148.3</ele>
        <time>2024-10-03T08:07:50Z</time>
      </trkpt>
      <trkpt lat="48.67492" lon="1.71885">
        <ele>148</ele>
        <time>2024-10-03T08:07:58Z</time>
      </trkpt>
      <trkpt lat="48.67502" lon="1.71888">
        <ele>148.1</ele>
        <time>2024-10-03T08:08:04Z</time>
      </trkpt>
      <trkpt lat="48.6751" lon="1.71894">
        <ele>148.3</ele>
        <time>2024-10-03T08:08:10Z</time>
      </trkpt>
      <trkpt lat="48.67516" lon="1.71905">
        <ele>148.6</ele>
        <time>2024-10-03T08:08:19Z</time>
      </trkpt>
      <trkpt lat="48.67521" lon="1.71916">
        <ele>149.3</ele>
        <time>2024-10-03T08:08:29Z</time>
      </trkpt>
      <trkpt lat="48.67525" lon="1.71929">
        <ele>149.7</ele>
        <time>2024-10-03T08:08:36Z</time>
      </trkpt>
      <trkpt lat="48.67526" lon="1.71945">
        <ele>149.8</ele>
        <time>2024-10-03T08:08:43Z</time>
      </trkpt>
      <trkpt lat="48.67527" lon="1.71959">
        <ele>149.9</ele>
        <time>2024-10-03T08:08:51Z</time>
      </trkpt>
      <trkpt lat="48.67531" lon="1.71973">
        <ele>150.2</ele>
        <time>2024-10-03T08:09:00Z</time>
      </trkpt>
      <trkpt lat="48.67534" lon="1.71986">
        <ele>150.4</ele>
        <time>2024-10-03T08:09:07Z</time>
      </trkpt>
      <trkpt lat="48.67535" lon="1.72">
        <ele>150.5</ele>
        <time>2024-10-03T08:09:13Z</time>
      </trkpt>
      <trkpt lat="48.67538" lon="1.72013">
        <ele>150.4</ele>
        <time>2024-10-03T08:09:22Z</time>
      </trkpt>
      <trkpt lat="48.67537" lon="1.72027">
        <ele>150.1</ele>
        <time>2024-10-03T08:09:29Z</time>
      </trkpt>
      <trkpt lat="48.6754" lon="1.72041">
        <ele>150.3</ele>
        <time>2024-10-03T08:09:36Z</time>
      </trkpt>
      <trkpt lat="48.67542" lon="1.72056">
        <ele>150.6</ele>
        <time>2024-10-03T08:09:43Z</time>
      </trkpt>
      <trkpt lat="48.67543" lon="1.7207">
        <ele>150.6</ele>
        <time>2024-10-03T08:09:50Z</time>
      </trkpt>
      <trkpt lat="48.67539" lon="1.72083">
        <ele>150.2</ele>
        <time>2024-10-03T08:09:55Z</time>
      </trkpt>
      <trkpt lat="48.67533" lon="1.72096">
        <ele>149.9</ele>
        <time>2024-10-03T08:10:00Z</time>
      </trkpt>
      <trkpt lat="48.67527" lon="1.72109">
        <ele>149.9</ele>
        <time>2024-10-03T08:10:05Z</time>
      </trkpt>
      <trkpt lat="48.67521" lon="1.7212">
        <ele>150.1</ele>
        <time>2024-10-03T08:10:10Z</time>
      </trkpt>
      <trkpt lat="48.67516" lon="1.72131">
        <ele>150.2</ele>
        <time>2024-10-03T08:10:15Z</time>
      </trkpt>
      <trkpt lat="48.6751" lon="1.72143">
        <ele>150.3</ele>
        <time>2024-10-03T08:10:22Z</time>
      </trkpt>
      <trkpt lat="48.67503" lon="1.72154">
        <ele>150</ele>
        <time>2024-10-03T08:10:29Z</time>
      </trkpt>
      <trkpt lat="48.67496" lon="1.72163">
        <ele>149.7</ele>
        <time>2024-10-03T08:10:35Z</time>
      </trkpt>
      <trkpt lat="48.6749" lon="1.72174">
        <ele>150</ele>
        <time>2024-10-03T08:10:41Z</time>
      </trkpt>
      <trkpt lat="48.67485" lon="1.72185">
        <ele>150</ele>
        <time>2024-10-03T08:10:47Z</time>
      </trkpt>
      <trkpt lat="48.67479" lon="1.72195">
        <ele>149.7</ele>
        <time>2024-10-03T08:10:54Z</time>
      </trkpt>
      <trkpt lat="48.67471" lon="1.72204">
        <ele>149.6</ele>
        <time>2024-10-03T08:11:00Z</time>
      </trkpt>
      <trkpt lat="48.67463" lon="1.72213">
        <ele>149.1</ele>
        <time>2024-10-03T08:11:07Z</time>
      </trkpt>
      <trkpt lat="48.67455" lon="1.72223">
        <ele>148.6</ele>
        <time>2024-10-03T08:11:15Z</time>
      </trkpt>
      <trkpt lat="48.67446" lon="1.72228">
        <ele>147.5</ele>
        <time>2024-10-03T08:11:22Z</time>
      </trkpt>
      <trkpt lat="48.67438" lon="1.72237">
        <ele>146.7</ele>
        <time>2024-10-03T08:11:30Z</time>
      </trkpt>
      <trkpt lat="48.67432" lon="1.72248">
        <ele>146.2</ele>
        <time>2024-10-03T08:11:38Z</time>
      </trkpt>
      <trkpt lat="48.67427" lon="1.72262">
        <ele>145.6</ele>
        <time>2024-10-03T08:11:47Z</time>
      </trkpt>
      <trkpt lat="48.67423" lon="1.72275">
        <ele>145.1</ele>
        <time>2024-10-03T08:11:54Z</time>
      </trkpt>
      <trkpt lat="48.67421" lon="1.72289">
        <ele>145.1</ele>
        <time>2024-10-03T08:12:01Z</time>
      </trkpt>
      <trkpt lat="48.67421" lon="1.72304">
        <ele>145.6</ele>
        <time>2024-10-03T08:12:08Z</time>
      </trkpt>
      <trkpt lat="48.67421" lon="1.72319">
        <ele>145.3</ele>
        <time>2024-10-03T08:12:21Z</time>
      </trkpt>
      <trkpt lat="48.67423" lon="1.72334">
        <ele>145.4</ele>
        <time>2024-10-03T08:12:28Z</time>
      </trkpt>
      <trkpt lat="48.67427" lon="1.72347">
        <ele>146</ele>
        <time>2024-10-03T08:12:36Z</time>
      </trkpt>
      <trkpt lat="48.6743" lon="1.72361">
        <ele>146.5</ele>
        <time>2024-10-03T08:12:43Z</time>
      </trkpt>
      <trkpt lat="48.6743" lon="1.72376">
        <ele>146.4</ele>
        <time>2024-10-03T08:12:50Z</time>
      </trkpt>
      <trkpt lat="48.67428" lon="1.72391">
        <ele>146.1</ele>
        <time>2024-10-03T08:13:01Z</time>
      </trkpt>
      <trkpt lat="48.67423" lon="1.72403">
        <ele>144.9</ele>
        <time>2024-10-03T08:13:08Z</time>
      </trkpt>
      <trkpt lat="48.67417" lon="1.72413">
        <ele>144</ele>
        <time>2024-10-03T08:13:13Z</time>
      </trkpt>
      <trkpt lat="48.67409" lon="1.72421">
        <ele>144.4</ele>
        <time>2024-10-03T08:13:18Z</time>
      </trkpt>
      <trkpt lat="48.67401" lon="1.7243">
        <ele>144.9</ele>
        <time>2024-10-03T08:13:25Z</time>
      </trkpt>
      <trkpt lat="48.67395" lon="1.72441">
        <ele>145.3</ele>
        <time>2024-10-03T08:13:34Z</time>
      </trkpt>
      <trkpt lat="48.67391" lon="1.72454">
        <ele>145.5</ele>
        <time>2024-10-03T08:13:44Z</time>
      </trkpt>
      <trkpt lat="48.67387" lon="1.72466">
        <ele>145.6</ele>
        <time>2024-10-03T08:13:53Z</time>
      </trkpt>
      <trkpt lat="48.67384" lon="1.7248">
        <ele>146.1</ele>
        <time>2024-10-03T08:14:02Z</time>
      </trkpt>
      <trkpt lat="48.6738" lon="1.72492">
        <ele>146.8</ele>
        <time>2024-10-03T08:14:09Z</time>
      </trkpt>
      <trkpt lat="48.67375" lon="1.72506">
        <ele>147.6</ele>
        <time>2024-10-03T08:14:15Z</time>
      </trkpt>
      <trkpt lat="48.67371" lon="1.72518">
        <ele>148.4</ele>
        <time>2024-10-03T08:14:22Z</time>
      </trkpt>
      <trkpt lat="48.67367" lon="1.72532">
        <ele>148.9</ele>
        <time>2024-10-03T08:14:32Z</time>
      </trkpt>
      <trkpt lat="48.67363" lon="1.72545">
        <ele>148.3</ele>
        <time>2024-10-03T08:14:42Z</time>
      </trkpt>
      <trkpt lat="48.67357" lon="1.72556">
        <ele>147.4</ele>
        <time>2024-10-03T08:14:50Z</time>
      </trkpt>
      <trkpt lat="48.67355" lon="1.72571">
        <ele>146.1</ele>
        <time>2024-10-03T08:15:02Z</time>
      </trkpt>
      <trkpt lat="48.67351" lon="1.72584">
        <ele>144.9</ele>
        <time>2024-10-03T08:15:09Z</time>
      </trkpt>
      <trkpt lat="48.67346" lon="1.72597">
        <ele>144.2</ele>
        <time>2024-10-03T08:15:16Z</time>
      </trkpt>
      <trkpt lat="48.67342" lon="1.72611">
        <ele>143.7</ele>
        <time>2024-10-03T08:15:23Z</time>
      </trkpt>
      <trkpt lat="48.67341" lon="1.72626">
        <ele>144.5</ele>
        <time>2024-10-03T08:15:31Z</time>
      </trkpt>
      <trkpt lat="48.67337" lon="1.72639">
        <ele>144.7</ele>
        <time>2024-10-03T08:15:38Z</time>
      </trkpt>
      <trkpt lat="48.67331" lon="1.72652">
        <ele>144.3</ele>
        <time>2024-10-03T08:15:46Z</time>
      </trkpt>
      <trkpt lat="48.67328" lon="1.72665">
        <ele>144.4</ele>
        <time>2024-10-03T08:15:56Z</time>
      </trkpt>
      <trkpt lat="48.67323" lon="1.72678">
        <ele>143.9</ele>
        <time>2024-10-03T08:16:03Z</time>
      </trkpt>
      <trkpt lat="48.67319" lon="1.7269">
        <ele>143.4</ele>
        <time>2024-10-03T08:16:08Z</time>
      </trkpt>
      <trkpt lat="48.67315" lon="1.72703">
        <ele>143.2</ele>
        <time>2024-10-03T08:16:16Z</time>
      </trkpt>
      <trkpt lat="48.67311" lon="1.72718">
        <ele>143.3</ele>
        <time>2024-10-03T08:16:25Z</time>
      </trkpt>
      <trkpt lat="48.67308" lon="1.72732">
        <ele>143.2</ele>
        <time>2024-10-03T08:16:33Z</time>
      </trkpt>
      <trkpt lat="48.67305" lon="1.72745">
        <ele>143</ele>
        <time>2024-10-03T08:16:40Z</time>
      </trkpt>
      <trkpt lat="48.67302" lon="1.72761">
        <ele>143.2</ele>
        <time>2024-10-03T08:16:46Z</time>
      </trkpt>
      <trkpt lat="48.67299" lon="1.72775">
        <ele>143.5</ele>
        <time>2024-10-03T08:16:53Z</time>
      </trkpt>
      <trkpt lat="48.67296" lon="1.72789">
        <ele>143.6</ele>
        <time>2024-10-03T08:17:00Z</time>
      </trkpt>
      <trkpt lat="48.67291" lon="1.72802">
        <ele>143.4</ele>
        <time>2024-10-03T08:17:07Z</time>
      </trkpt>
      <trkpt lat="48.67285" lon="1.72814">
        <ele>143.2</ele>
        <time>2024-10-03T08:17:14Z</time>
      </trkpt>
      <trkpt lat="48.67285" lon="1.72829">
        <ele>143.8</ele>
        <time>2024-10-03T08:17:25Z</time>
      </trkpt>
      <trkpt lat="48.67283" lon="1.72843">
        <ele>144.6</ele>
        <time>2024-10-03T08:17:34Z</time>
      </trkpt>
      <trkpt lat="48.67282" lon="1.72857">
        <ele>145.6</ele>
        <time>2024-10-03T08:17:42Z</time>
      </trkpt>
      <trkpt lat="48.67276" lon="1.72869">
        <ele>146.6</ele>
        <time>2024-10-03T08:17:49Z</time>
      </trkpt>
      <trkpt lat="48.67271" lon="1.72881">
        <ele>147.4</ele>
        <time>2024-10-03T08:17:56Z</time>
      </trkpt>
      <trkpt lat="48.67266" lon="1.72893">
        <ele>148.6</ele>
        <time>2024-10-03T08:18:02Z</time>
      </trkpt>
      <trkpt lat="48.6726" lon="1.72904">
        <ele>150.4</ele>
        <time>2024-10-03T08:18:09Z</time>
      </trkpt>
      <trkpt lat="48.67253" lon="1.72915">
        <ele>152.4</ele>
        <time>2024-10-03T08:18:16Z</time>
      </trkpt>
      <trkpt lat="48.67245" lon="1.72923">
        <ele>154.3</ele>
        <time>2024-10-03T08:18:25Z</time>
      </trkpt>
      <trkpt lat="48.67236" lon="1.72927">
        <ele>155.6</ele>
        <time>2024-10-03T08:18:33Z</time>
      </trkpt>
      <trkpt lat="48.67226" lon="1.72934">
        <ele>157.4</ele>
        <time>2024-10-03T08:18:42Z</time>
      </trkpt>
      <trkpt lat="48.67219" lon="1.72945">
        <ele>159.4</ele>
        <time>2024-10-03T08:18:50Z</time>
      </trkpt>
      <trkpt lat="48.67215" lon="1.72957">
        <ele>161</ele>
        <time>2024-10-03T08:18:59Z</time>
      </trkpt>
      <trkpt lat="48.6721" lon="1.7297">
        <ele>161.7</ele>
        <time>2024-10-03T08:19:08Z</time>
      </trkpt>
      <trkpt lat="48.67205" lon="1.72982">
        <ele>161</ele>
        <time>2024-10-03T08:19:16Z</time>
      </trkpt>
      <trkpt lat="48.67203" lon="1.72997">
        <ele>160.9</ele>
        <time>2024-10-03T08:19:23Z</time>
      </trkpt>
      <trkpt lat="48.67201" lon="1.7301">
        <ele>160.6</ele>
        <time>2024-10-03T08:19:30Z</time>
      </trkpt>
      <trkpt lat="48.67202" lon="1.73024">
        <ele>161</ele>
        <time>2024-10-03T08:19:40Z</time>
      </trkpt>
      <trkpt lat="48.67204" lon="1.7304">
        <ele>160.7</ele>
        <time>2024-10-03T08:19:50Z</time>
      </trkpt>
      <trkpt lat="48.6721" lon="1.7305">
        <ele>162.2</ele>
        <time>2024-10-03T08:19:58Z</time>
      </trkpt>
      <trkpt lat="48.67215" lon="1.73062">
        <ele>162.9</ele>
        <time>2024-10-03T08:20:07Z</time>
      </trkpt>
      <trkpt lat="48.67219" lon="1.73076">
        <ele>162.9</ele>
        <time>2024-10-03T08:20:16Z</time>
      </trkpt>
      <trkpt lat="48.67226" lon="1.73085">
        <ele>163.2</ele>
        <time>2024-10-03T08:20:23Z</time>
      </trkpt>
      <trkpt lat="48.67233" lon="1.73095">
        <ele>163</ele>
        <time>2024-10-03T08:20:30Z</time>
      </trkpt>
      <trkpt lat="48.67236" lon="1.73109">
        <ele>162.2</ele>
        <time>2024-10-03T08:20:40Z</time>
      </trkpt>
      <trkpt lat="48.67239" lon="1.73123">
        <ele>161.2</ele>
        <time>2024-10-03T08:20:52Z</time>
      </trkpt>
      <trkpt lat="48.67247" lon="1.73132">
        <ele>161.2</ele>
        <time>2024-10-03T08:21:00Z</time>
      </trkpt>
      <trkpt lat="48.67254" lon="1.73143">
        <ele>161</ele>
        <time>2024-10-03T08:21:07Z</time>
      </trkpt>
      <trkpt lat="48.67261" lon="1.73151">
        <ele>161.1</ele>
        <time>2024-10-03T08:21:17Z</time>
      </trkpt>
      <trkpt lat="48.67271" lon="1.7315">
        <ele>162</ele>
        <time>2024-10-03T08:21:25Z</time>
      </trkpt>
      <trkpt lat="48.67281" lon="1.73152">
        <ele>162.7</ele>
        <time>2024-10-03T08:21:35Z</time>
      </trkpt>
      <trkpt lat="48.67289" lon="1.73146">
        <ele>163.6</ele>
        <time>2024-10-03T08:21:43Z</time>
      </trkpt>
      <trkpt lat="48.67298" lon="1.73141">
        <ele>164.4</ele>
        <time>2024-10-03T08:21:51Z</time>
      </trkpt>
      <trkpt lat="48.67309" lon="1.73138">
        <ele>165.1</ele>
        <time>2024-10-03T08:22:01Z</time>
      </trkpt>
      <trkpt lat="48.67317" lon="1.73131">
        <ele>165.4</ele>
        <time>2024-10-03T08:22:07Z</time>
      </trkpt>
      <trkpt lat="48.67327" lon="1.73134">
        <ele>165.8</ele>
        <time>2024-10-03T08:22:15Z</time>
      </trkpt>
      <trkpt lat="48.67336" lon="1.73131">
        <ele>166.1</ele>
        <time>2024-10-03T08:22:23Z</time>
      </trkpt>
      <trkpt lat="48.67346" lon="1.73133">
        <ele>166.5</ele>
        <time>2024-10-03T08:22:34Z</time>
      </trkpt>
      <trkpt lat="48.67355" lon="1.73134">
        <ele>166.8</ele>
        <time>2024-10-03T08:22:44Z</time>
      </trkpt>
      <trkpt lat="48.67365" lon="1.73135">
        <ele>167.1</ele>
        <time>2024-10-03T08:22:53Z</time>
      </trkpt>
      <trkpt lat="48.67373" lon="1.73143">
        <ele>167.4</ele>
        <time>2024-10-03T08:23:08Z</time>
      </trkpt>
      <trkpt lat="48.67379" lon="1.73153">
        <ele>167.7</ele>
        <time>2024-10-03T08:23:20Z</time>
      </trkpt>
      <trkpt lat="48.67386" lon="1.73163">
        <ele>167.9</ele>
        <time>2024-10-03T08:23:29Z</time>
      </trkpt>
      <trkpt lat="48.67391" lon="1.73175">
        <ele>168</ele>
        <time>2024-10-03T08:23:38Z</time>
      </trkpt>
      <trkpt lat="48.674" lon="1.73183">
        <ele>168</ele>
        <time>2024-10-03T08:23:46Z</time>
      </trkpt>
      <trkpt lat="48.6741" lon="1.73187">
        <ele>168</ele>
        <time>2024-10-03T08:23:51Z</time>
      </trkpt>
      <trkpt lat="48.67419" lon="1.73192">
        <ele>167.9</ele>
        <time>2024-10-03T08:23:58Z</time>
      </trkpt>
      <trkpt lat="48.67428" lon="1.73201">
        <ele>167.6</ele>
        <time>2024-10-03T08:24:04Z</time>
      </trkpt>
      <trkpt lat="48.67437" lon="1.73205">
        <ele>167.3</ele>
        <time>2024-10-03T08:24:09Z</time>
      </trkpt>
      <trkpt lat="48.67447" lon="1.7321">
        <ele>167</ele>
        <time>2024-10-03T08:24:14Z</time>
      </trkpt>
      <trkpt lat="48.67458" lon="1.73215">
        <ele>167</ele>
        <time>2024-10-03T08:24:20Z</time>
      </trkpt>
      <trkpt lat="48.67467" lon="1.73217">
        <ele>167</ele>
        <time>2024-10-03T08:24:25Z</time>
      </trkpt>
      <trkpt lat="48.67476" lon="1.7322">
        <ele>167.1</ele>
        <time>2024-10-03T08:24:31Z</time>
      </trkpt>
      <trkpt lat="48.67484" lon="1.73228">
        <ele>167.4</ele>
        <time>2024-10-03T08:24:39Z</time>
      </trkpt>
      <trkpt lat="48.67491" lon="1.73239">
        <ele>167.7</ele>
        <time>2024-10-03T08:24:46Z</time>
      </trkpt>
      <trkpt lat="48.67497" lon="1.73249">
        <ele>167.9</ele>
        <time>2024-10-03T08:24:54Z</time>
      </trkpt>
      <trkpt lat="48.67505" lon="1.73259">
        <ele>168</ele>
        <time>2024-10-03T08:25:03Z</time>
      </trkpt>
      <trkpt lat="48.67511" lon="1.7327">
        <ele>168</ele>
        <time>2024-10-03T08:25:12Z</time>
      </trkpt>
      <trkpt lat="48.67519" lon="1.7328">
        <ele>168</ele>
        <time>2024-10-03T08:25:20Z</time>
      </trkpt>
      <trkpt lat="48.67528" lon="1.73285">
        <ele>167.7</ele>
        <time>2024-10-03T08:25:25Z</time>
      </trkpt>
      <trkpt lat="48.67537" lon="1.73293">
        <ele>167.4</ele>
        <time>2024-10-03T08:25:31Z</time>
      </trkpt>
      <trkpt lat="48.67544" lon="1.73301">
        <ele>167.2</ele>
        <time>2024-10-03T08:25:36Z</time>
      </trkpt>
      <trkpt lat="48.67553" lon="1.73308">
        <ele>166.9</ele>
        <time>2024-10-03T08:25:43Z</time>
      </trkpt>
      <trkpt lat="48.67563" lon="1.73312">
        <ele>167.3</ele>
        <time>2024-10-03T08:25:49Z</time>
      </trkpt>
      <trkpt lat="48.67572" lon="1.73316">
        <ele>167.8</ele>
        <time>2024-10-03T08:25:55Z</time>
      </trkpt>
      <trkpt lat="48.67582" lon="1.73319">
        <ele>168.4</ele>
        <time>2024-10-03T08:26:03Z</time>
      </trkpt>
      <trkpt lat="48.67592" lon="1.73318">
        <ele>168.7</ele>
        <time>2024-10-03T08:26:10Z</time>
      </trkpt>
      <trkpt lat="48.67602" lon="1.73319">
        <ele>168.8</ele>
        <time>2024-10-03T08:26:18Z</time>
      </trkpt>
      <trkpt lat="48.67612" lon="1.73321">
        <ele>169</ele>
        <time>2024-10-03T08:26:26Z</time>
      </trkpt>
      <trkpt lat="48.67621" lon="1.73322">
        <ele>169.4</ele>
        <time>2024-10-03T08:26:35Z</time>
      </trkpt>
      <trkpt lat="48.6763" lon="1.73325">
        <ele>169.7</ele>
        <time>2024-10-03T08:26:43Z</time>
      </trkpt>
      <trkpt lat="48.67639" lon="1.73327">
        <ele>170</ele>
        <time>2024-10-03T08:26:50Z</time>
      </trkpt>
      <trkpt lat="48.67649" lon="1.73329">
        <ele>170</ele>
        <time>2024-10-03T08:26:58Z</time>
      </trkpt>
      <trkpt lat="48.67658" lon="1.73333">
        <ele>170</ele>
        <time>2024-10-03T08:27:04Z</time>
      </trkpt>
      <trkpt lat="48.67669" lon="1.73335">
        <ele>170</ele>
        <time>2024-10-03T08:27:10Z</time>
      </trkpt>
      <trkpt lat="48.67679" lon="1.73339">
        <ele>170</ele>
        <time>2024-10-03T08:27:16Z</time>
      </trkpt>
      <trkpt lat="48.67688" lon="1.73342">
        <ele>170</ele>
        <time>2024-10-03T08:27:23Z</time>
      </trkpt>
      <trkpt lat="48.67697" lon="1.73343">
        <ele>170</ele>
        <time>2024-10-03T08:27:30Z</time>
      </trkpt>
      <trkpt lat="48.67707" lon="1.73343">
        <ele>170</ele>
        <time>2024-10-03T08:27:37Z</time>
      </trkpt>
      <trkpt lat="48.67716" lon="1.7334">
        <ele>170</ele>
        <time>2024-10-03T08:27:43Z</time>
      </trkpt>
      <trkpt lat="48.67725" lon="1.73344">
        <ele>170</ele>
        <time>2024-10-03T08:27:50Z</time>
      </trkpt>
      <trkpt lat="48.67728" lon="1.73358">
        <ele>170</ele>
        <time>2024-10-03T08:28:00Z</time>
      </trkpt>
      <trkpt lat="48.67733" lon="1.7337">
        <ele>170</ele>
        <time>2024-10-03T08:28:07Z</time>
      </trkpt>
      <trkpt lat="48.67739" lon="1.7338">
        <ele>170</ele>
        <time>2024-10-03T08:28:15Z</time>
      </trkpt>
      <trkpt lat="48.67745" lon="1.73392">
        <ele>170</ele>
        <time>2024-10-03T08:28:24Z</time>
      </trkpt>
      <trkpt lat="48.67743" lon="1.73407">
        <ele>170</ele>
        <time>2024-10-03T08:28:30Z</time>
      </trkpt>
      <trkpt lat="48.67744" lon="1.73421">
        <ele>170</ele>
        <time>2024-10-03T08:28:37Z</time>
      </trkpt>
      <trkpt lat="48.67747" lon="1.73437">
        <ele>170</ele>
        <time>2024-10-03T08:28:44Z</time>
      </trkpt>
      <trkpt lat="48.67748" lon="1.7345">
        <ele>170</ele>
        <time>2024-10-03T08:28:50Z</time>
      </trkpt>
      <trkpt lat="48.6775" lon="1.73463">
        <ele>170</ele>
        <time>2024-10-03T08:28:56Z</time>
      </trkpt>
      <trkpt lat="48.67756" lon="1.73477">
        <ele>170</ele>
        <time>2024-10-03T08:29:04Z</time>
      </trkpt>
      <trkpt lat="48.67759" lon="1.73492">
        <ele>170</ele>
        <time>2024-10-03T08:29:11Z</time>
      </trkpt>
      <trkpt lat="48.67761" lon="1.73507">
        <ele>170</ele>
        <time>2024-10-03T08:29:18Z</time>
      </trkpt>
      <trkpt lat="48.67765" lon="1.7352">
        <ele>170</ele>
        <time>2024-10-03T08:29:25Z</time>
      </trkpt>
      <trkpt lat="48.67766" lon="1.73535">
        <ele>170</ele>
        <time>2024-10-03T08:29:32Z</time>
      </trkpt>
      <trkpt lat="48.67767" lon="1.7355">
        <ele>170</ele>
        <time>2024-10-03T08:29:39Z</time>
      </trkpt>
      <trkpt lat="48.67773" lon="1.73562">
        <ele>170</ele>
        <time>2024-10-03T08:29:47Z</time>
      </trkpt>
      <trkpt lat="48.67774" lon="1.73576">
        <ele>170</ele>
        <time>2024-10-03T08:29:52Z</time>
      </trkpt>
      <trkpt lat="48.67776" lon="1.73592">
        <ele>169.7</ele>
        <time>2024-10-03T08:29:59Z</time>
      </trkpt>
      <trkpt lat="48.67777" lon="1.73607">
        <ele>169.2</ele>
        <time>2024-10-03T08:30:05Z</time>
      </trkpt>
      <trkpt lat="48.67776" lon="1.73622">
        <ele>169.4</ele>
        <time>2024-10-03T08:30:12Z</time>
      </trkpt>
      <trkpt lat="48.67775" lon="1.73637">
        <ele>170</ele>
        <time>2024-10-03T08:30:19Z</time>
      </trkpt>
      <trkpt lat="48.6778" lon="1.7365">
        <ele>169.9</ele>
        <time>2024-10-03T08:30:26Z</time>
      </trkpt>
      <trkpt lat="48.67786" lon="1.73661">
        <ele>169.7</ele>
        <time>2024-10-03T08:30:33Z</time>
      </trkpt>
      <trkpt lat="48.67787" lon="1.73677">
        <ele>169.4</ele>
        <time>2024-10-03T08:30:40Z</time>
      </trkpt>
      <trkpt lat="48.67785" lon="1.73692">
        <ele>169.1</ele>
        <time>2024-10-03T08:30:47Z</time>
      </trkpt>
      <trkpt lat="48.67785" lon="1.73706">
        <ele>169</ele>
        <time>2024-10-03T08:30:54Z</time>
      </trkpt>
      <trkpt lat="48.67789" lon="1.73721">
        <ele>169</ele>
        <time>2024-10-03T08:31:00Z</time>
      </trkpt>
      <trkpt lat="48.6779" lon="1.73736">
        <ele>169</ele>
        <time>2024-10-03T08:31:06Z</time>
      </trkpt>
      <trkpt lat="48.67795" lon="1.73749">
        <ele>169</ele>
        <time>2024-10-03T08:31:14Z</time>
      </trkpt>
      <trkpt lat="48.67799" lon="1.73762">
        <ele>169</ele>
        <time>2024-10-03T08:31:21Z</time>
      </trkpt>
      <trkpt lat="48.67804" lon="1.73777">
        <ele>169</ele>
        <time>2024-10-03T08:31:29Z</time>
      </trkpt>
      <trkpt lat="48.67804" lon="1.73792">
        <ele>169</ele>
        <time>2024-10-03T08:31:35Z</time>
      </trkpt>
      <trkpt lat="48.67807" lon="1.73806">
        <ele>169</ele>
        <time>2024-10-03T08:31:44Z</time>
      </trkpt>
      <trkpt lat="48.67813" lon="1.73818">
        <ele>169</ele>
        <time>2024-10-03T08:31:53Z</time>
      </trkpt>
      <trkpt lat="48.67812" lon="1.73833">
        <ele>169</ele>
        <time>2024-10-03T08:32:00Z</time>
      </trkpt>
      <trkpt lat="48.67812" lon="1.73848">
        <ele>168.9</ele>
        <time>2024-10-03T08:32:06Z</time>
      </trkpt>
      <trkpt lat="48.67813" lon="1.73862">
        <ele>168.7</ele>
        <time>2024-10-03T08:32:13Z</time>
      </trkpt>
      <trkpt lat="48.67815" lon="1.73876">
        <ele>168.3</ele>
        <time>2024-10-03T08:32:19Z</time>
      </trkpt>
      <trkpt lat="48.67817" lon="1.73891">
        <ele>168</ele>
        <time>2024-10-03T08:32:25Z</time>
      </trkpt>
      <trkpt lat="48.6782" lon="1.73905">
        <ele>168</ele>
        <time>2024-10-03T08:32:33Z</time>
      </trkpt>
      <trkpt lat="48.67817" lon="1.73918">
        <ele>168</ele>
        <time>2024-10-03T08:32:39Z</time>
      </trkpt>
      <trkpt lat="48.67821" lon="1.73932">
        <ele>168</ele>
        <time>2024-10-03T08:32:45Z</time>
      </trkpt>
      <trkpt lat="48.67823" lon="1.73947">
        <ele>168</ele>
        <time>2024-10-03T08:32:52Z</time>
      </trkpt>
      <trkpt lat="48.67825" lon="1.73961">
        <ele>168</ele>
        <time>2024-10-03T08:33:00Z</time>
      </trkpt>
      <trkpt lat="48.67833" lon="1.7397">
        <ele>168</ele>
        <time>2024-10-03T08:33:08Z</time>
      </trkpt>
      <trkpt lat="48.67835" lon="1.73985">
        <ele>167.9</ele>
        <time>2024-10-03T08:33:15Z</time>
      </trkpt>
      <trkpt lat="48.67836" lon="1.74">
        <ele>167.9</ele>
        <time>2024-10-03T08:33:21Z</time>
      </trkpt>
      <trkpt lat="48.67835" lon="1.74016">
        <ele>167.4</ele>
        <time>2024-10-03T08:33:29Z</time>
      </trkpt>
      <trkpt lat="48.67837" lon="1.74029">
        <ele>167</ele>
        <time>2024-10-03T08:33:36Z</time>
      </trkpt>
      <trkpt lat="48.67838" lon="1.74045">
        <ele>167</ele>
        <time>2024-10-03T08:33:42Z</time>
      </trkpt>
      <trkpt lat="48.67843" lon="1.74058">
        <ele>167</ele>
        <time>2024-10-03T08:33:49Z</time>
      </trkpt>
      <trkpt lat="48.6784" lon="1.74071">
        <ele>166.9</ele>
        <time>2024-10-03T08:33:55Z</time>
      </trkpt>
      <trkpt lat="48.67842" lon="1.74085">
        <ele>166.7</ele>
        <time>2024-10-03T08:34:01Z</time>
      </trkpt>
      <trkpt lat="48.67843" lon="1.741">
        <ele>166.9</ele>
        <time>2024-10-03T08:34:09Z</time>
      </trkpt>
      <trkpt lat="48.67839" lon="1.74114">
        <ele>167</ele>
        <time>2024-10-03T08:34:16Z</time>
      </trkpt>
      <trkpt lat="48.67844" lon="1.74126">
        <ele>166.8</ele>
        <time>2024-10-03T08:34:24Z</time>
      </trkpt>
      <trkpt lat="48.67848" lon="1.74139">
        <ele>166.5</ele>
        <time>2024-10-03T08:34:34Z</time>
      </trkpt>
      <trkpt lat="48.67854" lon="1.7415">
        <ele>166.3</ele>
        <time>2024-10-03T08:34:42Z</time>
      </trkpt>
      <trkpt lat="48.67856" lon="1.74165">
        <ele>166.2</ele>
        <time>2024-10-03T08:34:51Z</time>
      </trkpt>
      <trkpt lat="48.67858" lon="1.7418">
        <ele>166.1</ele>
        <time>2024-10-03T08:35:00Z</time>
      </trkpt>
      <trkpt lat="48.67856" lon="1.74194">
        <ele>166.2</ele>
        <time>2024-10-03T08:35:08Z</time>
      </trkpt>
      <trkpt lat="48.67861" lon="1.74207">
        <ele>166</ele>
        <time>2024-10-03T08:35:17Z</time>
      </trkpt>
      <trkpt lat="48.67866" lon="1.74219">
        <ele>165.8</ele>
        <time>2024-10-03T08:35:26Z</time>
      </trkpt>
      <trkpt lat="48.67865" lon="1.74234">
        <ele>165.9</ele>
        <time>2024-10-03T08:35:34Z</time>
      </trkpt>
      <trkpt lat="48.67866" lon="1.74248">
        <ele>165.8</ele>
        <time>2024-10-03T08:35:43Z</time>
      </trkpt>
      <trkpt lat="48.67867" lon="1.74263">
        <ele>165.4</ele>
        <time>2024-10-03T08:35:50Z</time>
      </trkpt>
      <trkpt lat="48.67869" lon="1.74277">
        <ele>165</ele>
        <time>2024-10-03T08:35:57Z</time>
      </trkpt>
      <trkpt lat="48.67872" lon="1.74291">
        <ele>164.8</ele>
        <time>2024-10-03T08:36:05Z</time>
      </trkpt>
      <trkpt lat="48.67875" lon="1.74305">
        <ele>164.5</ele>
        <time>2024-10-03T08:36:13Z</time>
      </trkpt>
      <trkpt lat="48.67881" lon="1.74317">
        <ele>164.3</ele>
        <time>2024-10-03T08:36:21Z</time>
      </trkpt>
      <trkpt lat="48.67881" lon="1.74331">
        <ele>164.3</ele>
        <time>2024-10-03T08:36:28Z</time>
      </trkpt>
      <trkpt lat="48.67886" lon="1.74342">
        <ele>164.1</ele>
        <time>2024-10-03T08:36:35Z</time>
      </trkpt>
      <trkpt lat="48.67888" lon="1.74357">
        <ele>164</ele>
        <time>2024-10-03T08:36:43Z</time>
      </trkpt>
      <trkpt lat="48.6789" lon="1.74372">
        <ele>163.9</ele>
        <time>2024-10-03T08:36:51Z</time>
      </trkpt>
      <trkpt lat="48.67895" lon="1.74384">
        <ele>163.8</ele>
        <time>2024-10-03T08:36:57Z</time>
      </trkpt>
      <trkpt lat="48.67897" lon="1.74398">
        <ele>163.7</ele>
        <time>2024-10-03T08:37:07Z</time>
      </trkpt>
      <trkpt lat="48.67894" lon="1.74412">
        <ele>163.8</ele>
        <time>2024-10-03T08:37:15Z</time>
      </trkpt>
      <trkpt lat="48.67898" lon="1.74426">
        <ele>163.4</ele>
        <time>2024-10-03T08:37:23Z</time>
      </trkpt>
      <trkpt lat="48.67898" lon="1.7444">
        <ele>163.1</ele>
        <time>2024-10-03T08:37:32Z</time>
      </trkpt>
      <trkpt lat="48.67898" lon="1.74456">
        <ele>162.9</ele>
        <time>2024-10-03T08:37:41Z</time>
      </trkpt>
      <trkpt lat="48.67896" lon="1.74471">
        <ele>162.8</ele>
        <time>2024-10-03T08:37:48Z</time>
      </trkpt>
      <trkpt lat="48.67898" lon="1.74484">
        <ele>162.7</ele>
        <time>2024-10-03T08:37:59Z</time>
      </trkpt>
      <trkpt lat="48.67896" lon="1.74498">
        <ele>162.8</ele>
        <time>2024-10-03T08:38:36Z</time>
      </trkpt>
      <trkpt lat="48.67892" lon="1.74511">
        <ele>162.5</ele>
        <time>2024-10-03T08:38:43Z</time>
      </trkpt>
      <trkpt lat="48.67887" lon="1.74524">
        <ele>162.2</ele>
        <time>2024-10-03T08:38:51Z</time>
      </trkpt>
      <trkpt lat="48.67884" lon="1.74538">
        <ele>162.2</ele>
        <time>2024-10-03T08:39:00Z</time>
      </trkpt>
      <trkpt lat="48.67887" lon="1.74551">
        <ele>162.1</ele>
        <time>2024-10-03T08:39:10Z</time>
      </trkpt>
      <trkpt lat="48.67882" lon="1.74564">
        <ele>162.2</ele>
        <time>2024-10-03T08:39:18Z</time>
      </trkpt>
      <trkpt lat="48.6788" lon="1.74578">
        <ele>162.1</ele>
        <time>2024-10-03T08:39:28Z</time>
      </trkpt>
      <trkpt lat="48.67875" lon="1.74591">
        <ele>161.9</ele>
        <time>2024-10-03T08:39:35Z</time>
      </trkpt>
      <trkpt lat="48.67873" lon="1.74605">
        <ele>161.7</ele>
        <time>2024-10-03T08:39:42Z</time>
      </trkpt>
      <trkpt lat="48.6787" lon="1.74618">
        <ele>161.8</ele>
        <time>2024-10-03T08:39:51Z</time>
      </trkpt>
      <trkpt lat="48.67868" lon="1.74634">
        <ele>162.4</ele>
        <time>2024-10-03T08:39:57Z</time>
      </trkpt>
      <trkpt lat="48.67865" lon="1.74649">
        <ele>162.4</ele>
        <time>2024-10-03T08:40:03Z</time>
      </trkpt>
      <trkpt lat="48.67863" lon="1.74664">
        <ele>162</ele>
        <time>2024-10-03T08:40:08Z</time>
      </trkpt>
      <trkpt lat="48.67861" lon="1.74678">
        <ele>161.6</ele>
        <time>2024-10-03T08:40:13Z</time>
      </trkpt>
      <trkpt lat="48.67858" lon="1.74692">
        <ele>161.2</ele>
        <time>2024-10-03T08:40:18Z</time>
      </trkpt>
      <trkpt lat="48.67855" lon="1.74706">
        <ele>161.1</ele>
        <time>2024-10-03T08:40:24Z</time>
      </trkpt>
      <trkpt lat="48.67851" lon="1.74719">
        <ele>161</ele>
        <time>2024-10-03T08:40:31Z</time>
      </trkpt>
      <trkpt lat="48.67852" lon="1.74734">
        <ele>160.7</ele>
        <time>2024-10-03T08:40:39Z</time>
      </trkpt>
      <trkpt lat="48.67857" lon="1.74747">
        <ele>160.2</ele>
        <time>2024-10-03T08:40:46Z</time>
      </trkpt>
      <trkpt lat="48.67863" lon="1.74758">
        <ele>159.7</ele>
        <time>2024-10-03T08:40:53Z</time>
      </trkpt>
      <trkpt lat="48.67862" lon="1.74773">
        <ele>159.2</ele>
        <time>2024-10-03T08:41:00Z</time>
      </trkpt>
      <trkpt lat="48.67867" lon="1.74787">
        <ele>158.9</ele>
        <time>2024-10-03T08:41:06Z</time>
      </trkpt>
      <trkpt lat="48.67868" lon="1.74801">
        <ele>158.8</ele>
        <time>2024-10-03T08:41:11Z</time>
      </trkpt>
      <trkpt lat="48.67868" lon="1.74817">
        <ele>158.4</ele>
        <time>2024-10-03T08:41:18Z</time>
      </trkpt>
      <trkpt lat="48.6787" lon="1.7483">
        <ele>158.1</ele>
        <time>2024-10-03T08:41:26Z</time>
      </trkpt>
      <trkpt lat="48.67873" lon="1.74845">
        <ele>157.8</ele>
        <time>2024-10-03T08:41:35Z</time>
      </trkpt>
      <trkpt lat="48.67871" lon="1.74859">
        <ele>157.7</ele>
        <time>2024-10-03T08:41:41Z</time>
      </trkpt>
      <trkpt lat="48.67871" lon="1.74873">
        <ele>157.6</ele>
        <time>2024-10-03T08:41:48Z</time>
      </trkpt>
      <trkpt lat="48.67872" lon="1.74887">
        <ele>157.6</ele>
        <time>2024-10-03T08:41:55Z</time>
      </trkpt>
      <trkpt lat="48.67871" lon="1.74873">
        <ele>157.7</ele>
        <time>2024-10-03T08:43:47Z</time>
      </trkpt>
      <trkpt lat="48.67871" lon="1.74854">
        <ele>157.7</ele>
        <time>2024-10-03T08:45:40Z</time>
      </trkpt>
      <trkpt lat="48.67871" lon="1.74869">
        <ele>157.6</ele>
        <time>2024-10-03T08:46:22Z</time>
      </trkpt>
      <trkpt lat="48.67869" lon="1.74884">
        <ele>157.7</ele>
        <time>2024-10-03T08:46:30Z</time>
      </trkpt>
      <trkpt lat="48.67866" lon="1.74897">
        <ele>157.5</ele>
        <time>2024-10-03T08:46:40Z</time>
      </trkpt>
      <trkpt lat="48.67857" lon="1.74905">
        <ele>157.5</ele>
        <time>2024-10-03T08:46:48Z</time>
      </trkpt>
      <trkpt lat="48.67849" lon="1.74913">
        <ele>157.5</ele>
        <time>2024-10-03T08:46:55Z</time>
      </trkpt>
      <trkpt lat="48.67841" lon="1.74922">
        <ele>157.6</ele>
        <time>2024-10-03T08:47:02Z</time>
      </trkpt>
      <trkpt lat="48.67834" lon="1.74934">
        <ele>157.4</ele>
        <time>2024-10-03T08:47:08Z</time>
      </trkpt>
      <trkpt lat="48.67829" lon="1.74947">
        <ele>157.2</ele>
        <time>2024-10-03T08:47:15Z</time>
      </trkpt>
      <trkpt lat="48.67824" lon="1.74961">
        <ele>157.3</ele>
        <time>2024-10-03T08:47:22Z</time>
      </trkpt>
      <trkpt lat="48.67819" lon="1.74974">
        <ele>157.4</ele>
        <time>2024-10-03T08:47:30Z</time>
      </trkpt>
      <trkpt lat="48.67814" lon="1.74986">
        <ele>157.2</ele>
        <time>2024-10-03T08:47:37Z</time>
      </trkpt>
      <trkpt lat="48.6781" lon="1.74998">
        <ele>156.9</ele>
        <time>2024-10-03T08:47:44Z</time>
      </trkpt>
      <trkpt lat="48.67805" lon="1.75009">
        <ele>156.7</ele>
        <time>2024-10-03T08:47:51Z</time>
      </trkpt>
      <trkpt lat="48.678" lon="1.75023">
        <ele>156.3</ele>
        <time>2024-10-03T08:47:59Z</time>
      </trkpt>
      <trkpt lat="48.67797" lon="1.75036">
        <ele>156.2</ele>
        <time>2024-10-03T08:48:05Z</time>
      </trkpt>
      <trkpt lat="48.67794" lon="1.75049">
        <ele>156.1</ele>
        <time>2024-10-03T08:48:11Z</time>
      </trkpt>
      <trkpt lat="48.67791" lon="1.75063">
        <ele>155.7</ele>
        <time>2024-10-03T08:48:18Z</time>
      </trkpt>
      <trkpt lat="48.67789" lon="1.75077">
        <ele>155.2</ele>
        <time>2024-10-03T08:48:25Z</time>
      </trkpt>
      <trkpt lat="48.67788" lon="1.75091">
        <ele>155</ele>
        <time>2024-10-03T08:48:33Z</time>
      </trkpt>
      <trkpt lat="48.67785" lon="1.75105">
        <ele>155</ele>
        <time>2024-10-03T08:48:42Z</time>
      </trkpt>
      <trkpt lat="48.67783" lon="1.75118">
        <ele>154.7</ele>
        <time>2024-10-03T08:48:53Z</time>
      </trkpt>
      <trkpt lat="48.67779" lon="1.75133">
        <ele>154.2</ele>
        <time>2024-10-03T08:49:03Z</time>
      </trkpt>
      <trkpt lat="48.67778" lon="1.75147">
        <ele>153.7</ele>
        <time>2024-10-03T08:49:11Z</time>
      </trkpt>
      <trkpt lat="48.67775" lon="1.75161">
        <ele>153</ele>
        <time>2024-10-03T08:49:20Z</time>
      </trkpt>
      <trkpt lat="48.67768" lon="1.75169">
        <ele>152.2</ele>
        <time>2024-10-03T08:49:31Z</time>
      </trkpt>
      <trkpt lat="48.67759" lon="1.75173">
        <ele>151.5</ele>
        <time>2024-10-03T08:49:43Z</time>
      </trkpt>
      <trkpt lat="48.67749" lon="1.75177">
        <ele>150.4</ele>
        <time>2024-10-03T08:49:52Z</time>
      </trkpt>
      <trkpt lat="48.67741" lon="1.75185">
        <ele>148.5</ele>
        <time>2024-10-03T08:49:59Z</time>
      </trkpt>
      <trkpt lat="48.67733" lon="1.75193">
        <ele>146.3</ele>
        <time>2024-10-03T08:50:06Z</time>
      </trkpt>
      <trkpt lat="48.67725" lon="1.75201">
        <ele>144.4</ele>
        <time>2024-10-03T08:50:16Z</time>
      </trkpt>
      <trkpt lat="48.67726" lon="1.75216">
        <ele>144.2</ele>
        <time>2024-10-03T08:50:24Z</time>
      </trkpt>
      <trkpt lat="48.67728" lon="1.7523">
        <ele>144.2</ele>
        <time>2024-10-03T08:50:33Z</time>
      </trkpt>
      <trkpt lat="48.6772" lon="1.75238">
        <ele>142.9</ele>
        <time>2024-10-03T08:50:42Z</time>
      </trkpt>
      <trkpt lat="48.67711" lon="1.75238">
        <ele>142.4</ele>
        <time>2024-10-03T08:50:50Z</time>
      </trkpt>
      <trkpt lat="48.67701" lon="1.7524">
        <ele>142</ele>
        <time>2024-10-03T08:50:58Z</time>
      </trkpt>
      <trkpt lat="48.67692" lon="1.75241">
        <ele>141.6</ele>
        <time>2024-10-03T08:51:07Z</time>
      </trkpt>
      <trkpt lat="48.67683" lon="1.75246">
        <ele>141.4</ele>
        <time>2024-10-03T08:51:37Z</time>
      </trkpt>
      <trkpt lat="48.67674" lon="1.75251">
        <ele>141.3</ele>
        <time>2024-10-03T08:51:45Z</time>
      </trkpt>
      <trkpt lat="48.67665" lon="1.75256">
        <ele>141</ele>
        <time>2024-10-03T08:51:53Z</time>
      </trkpt>
      <trkpt lat="48.67656" lon="1.75259">
        <ele>141</ele>
        <time>2024-10-03T08:52:02Z</time>
      </trkpt>
      <trkpt lat="48.67647" lon="1.75263">
        <ele>141</ele>
        <time>2024-10-03T08:52:11Z</time>
      </trkpt>
      <trkpt lat="48.67638" lon="1.75266">
        <ele>141</ele>
        <time>2024-10-03T08:52:20Z</time>
      </trkpt>
      <trkpt lat="48.67628" lon="1.75269">
        <ele>141.4</ele>
        <time>2024-10-03T08:52:28Z</time>
      </trkpt>
      <trkpt lat="48.67618" lon="1.75269">
        <ele>141.8</ele>
        <time>2024-10-03T08:52:36Z</time>
      </trkpt>
      <trkpt lat="48.67608" lon="1.75267">
        <ele>142.1</ele>
        <time>2024-10-03T08:52:44Z</time>
      </trkpt>
      <trkpt lat="48.67598" lon="1.75266">
        <ele>142.5</ele>
        <time>2024-10-03T08:52:51Z</time>
      </trkpt>
      <trkpt lat="48.67592" lon="1.75255">
        <ele>142.7</ele>
        <time>2024-10-03T08:53:00Z</time>
      </trkpt>
      <trkpt lat="48.67584" lon="1.75249">
        <ele>143</ele>
        <time>2024-10-03T08:53:07Z</time>
      </trkpt>
      <trkpt lat="48.67574" lon="1.75249">
        <ele>143.3</ele>
        <time>2024-10-03T08:53:14Z</time>
      </trkpt>
      <trkpt lat="48.67569" lon="1.75261">
        <ele>144</ele>
        <time>2024-10-03T08:53:38Z</time>
      </trkpt>
      <trkpt lat="48.67566" lon="1.75276">
        <ele>144.8</ele>
        <time>2024-10-03T08:53:47Z</time>
      </trkpt>
      <trkpt lat="48.67559" lon="1.75285">
        <ele>145.9</ele>
        <time>2024-10-03T08:53:55Z</time>
      </trkpt>
      <trkpt lat="48.67554" lon="1.75299">
        <ele>146.8</ele>
        <time>2024-10-03T08:54:03Z</time>
      </trkpt>
      <trkpt lat="48.67551" lon="1.75312">
        <ele>147.6</ele>
        <time>2024-10-03T08:54:11Z</time>
      </trkpt>
      <trkpt lat="48.67545" lon="1.75324">
        <ele>148.7</ele>
        <time>2024-10-03T08:54:20Z</time>
      </trkpt>
      <trkpt lat="48.67541" lon="1.75338">
        <ele>149.7</ele>
        <time>2024-10-03T08:54:29Z</time>
      </trkpt>
      <trkpt lat="48.67534" lon="1.7535">
        <ele>150.9</ele>
        <time>2024-10-03T08:54:37Z</time>
      </trkpt>
      <trkpt lat="48.6753" lon="1.75363">
        <ele>151.7</ele>
        <time>2024-10-03T08:54:46Z</time>
      </trkpt>
      <trkpt lat="48.67527" lon="1.75376">
        <ele>152.3</ele>
        <time>2024-10-03T08:54:54Z</time>
      </trkpt>
      <trkpt lat="48.67522" lon="1.75388">
        <ele>153.4</ele>
        <time>2024-10-03T08:55:02Z</time>
      </trkpt>
      <trkpt lat="48.67522" lon="1.75402">
        <ele>154.4</ele>
        <time>2024-10-03T08:55:11Z</time>
      </trkpt>
      <trkpt lat="48.67524" lon="1.75416">
        <ele>154.8</ele>
        <time>2024-10-03T08:55:19Z</time>
      </trkpt>
      <trkpt lat="48.67526" lon="1.7543">
        <ele>155.3</ele>
        <time>2024-10-03T08:55:32Z</time>
      </trkpt>
      <trkpt lat="48.67525" lon="1.75444">
        <ele>156.5</ele>
        <time>2024-10-03T08:55:42Z</time>
      </trkpt>
      <trkpt lat="48.67527" lon="1.75458">
        <ele>157.1</ele>
        <time>2024-10-03T08:55:54Z</time>
      </trkpt>
      <trkpt lat="48.6753" lon="1.75473">
        <ele>157.6</ele>
        <time>2024-10-03T08:56:03Z</time>
      </trkpt>
      <trkpt lat="48.67526" lon="1.75485">
        <ele>158.7</ele>
        <time>2024-10-03T08:56:12Z</time>
      </trkpt>
      <trkpt lat="48.67519" lon="1.75496">
        <ele>159.6</ele>
        <time>2024-10-03T08:56:22Z</time>
      </trkpt>
      <trkpt lat="48.67512" lon="1.75505">
        <ele>159.8</ele>
        <time>2024-10-03T08:56:29Z</time>
      </trkpt>
      <trkpt lat="48.67502" lon="1.75512">
        <ele>160.3</ele>
        <time>2024-10-03T08:56:37Z</time>
      </trkpt>
      <trkpt lat="48.67497" lon="1.75524">
        <ele>160.3</ele>
        <time>2024-10-03T08:56:47Z</time>
      </trkpt>
      <trkpt lat="48.67487" lon="1.75528">
        <ele>160.4</ele>
        <time>2024-10-03T08:56:56Z</time>
      </trkpt>
      <trkpt lat="48.67478" lon="1.75531">
        <ele>160.4</ele>
        <time>2024-10-03T08:57:03Z</time>
      </trkpt>
      <trkpt lat="48.67469" lon="1.75538">
        <ele>160.2</ele>
        <time>2024-10-03T08:57:10Z</time>
      </trkpt>
      <trkpt lat="48.67461" lon="1.75545">
        <ele>160.4</ele>
        <time>2024-10-03T08:57:17Z</time>
      </trkpt>
      <trkpt lat="48.67453" lon="1.75553">
        <ele>160.9</ele>
        <time>2024-10-03T08:57:24Z</time>
      </trkpt>
      <trkpt lat="48.67447" lon="1.75565">
        <ele>161.6</ele>
        <time>2024-10-03T08:57:32Z</time>
      </trkpt>
      <trkpt lat="48.67444" lon="1.75578">
        <ele>162</ele>
        <time>2024-10-03T08:57:39Z</time>
      </trkpt>
      <trkpt lat="48.67442" lon="1.75592">
        <ele>162.5</ele>
        <time>2024-10-03T08:57:46Z</time>
      </trkpt>
      <trkpt lat="48.67439" lon="1.75606">
        <ele>163.1</ele>
        <time>2024-10-03T08:57:53Z</time>
      </trkpt>
      <trkpt lat="48.67438" lon="1.7562">
        <ele>163.2</ele>
        <time>2024-10-03T08:58:00Z</time>
      </trkpt>
      <trkpt lat="48.67442" lon="1.75634">
        <ele>163.1</ele>
        <time>2024-10-03T08:58:05Z</time>
      </trkpt>
      <trkpt lat="48.67439" lon="1.75647">
        <ele>163.2</ele>
        <time>2024-10-03T08:58:13Z</time>
      </trkpt>
      <trkpt lat="48.67434" lon="1.7566">
        <ele>163.4</ele>
        <time>2024-10-03T08:58:20Z</time>
      </trkpt>
      <trkpt lat="48.67436" lon="1.75673">
        <ele>163.2</ele>
        <time>2024-10-03T08:58:27Z</time>
      </trkpt>
      <trkpt lat="48.67436" lon="1.75688">
        <ele>163.1</ele>
        <time>2024-10-03T08:58:34Z</time>
      </trkpt>
      <trkpt lat="48.6744" lon="1.75701">
        <ele>163</ele>
        <time>2024-10-03T08:58:41Z</time>
      </trkpt>
      <trkpt lat="48.67443" lon="1.75716">
        <ele>163</ele>
        <time>2024-10-03T08:58:47Z</time>
      </trkpt>
      <trkpt lat="48.67445" lon="1.7573">
        <ele>162.7</ele>
        <time>2024-10-03T08:58:53Z</time>
      </trkpt>
      <trkpt lat="48.67447" lon="1.75744">
        <ele>162.2</ele>
        <time>2024-10-03T08:59:00Z</time>
      </trkpt>
      <trkpt lat="48.67447" lon="1.75758">
        <ele>162</ele>
        <time>2024-10-03T08:59:06Z</time>
      </trkpt>
      <trkpt lat="48.67448" lon="1.75773">
        <ele>161.9</ele>
        <time>2024-10-03T08:59:12Z</time>
      </trkpt>
      <trkpt lat="48.67446" lon="1.75788">
        <ele>161.6</ele>
        <time>2024-10-03T08:59:19Z</time>
      </trkpt>
      <trkpt lat="48.67444" lon="1.75802">
        <ele>161.1</ele>
        <time>2024-10-03T08:59:29Z</time>
      </trkpt>
      <trkpt lat="48.67442" lon="1.75817">
        <ele>161.1</ele>
        <time>2024-10-03T08:59:36Z</time>
      </trkpt>
      <trkpt lat="48.67439" lon="1.75831">
        <ele>161.2</ele>
        <time>2024-10-03T08:59:43Z</time>
      </trkpt>
      <trkpt lat="48.67435" lon="1.75844">
        <ele>161.1</ele>
        <time>2024-10-03T08:59:50Z</time>
      </trkpt>
      <trkpt lat="48.67431" lon="1.75858">
        <ele>161</ele>
        <time>2024-10-03T08:59:57Z</time>
      </trkpt>
      <trkpt lat="48.67428" lon="1.75871">
        <ele>161</ele>
        <time>2024-10-03T09:00:04Z</time>
      </trkpt>
      <trkpt lat="48.67424" lon="1.75885">
        <ele>160.8</ele>
        <time>2024-10-03T09:00:11Z</time>
      </trkpt>
      <trkpt lat="48.6742" lon="1.75898">
        <ele>160.8</ele>
        <time>2024-10-03T09:00:18Z</time>
      </trkpt>
      <trkpt lat="48.67416" lon="1.75911">
        <ele>161</ele>
        <time>2024-10-03T09:00:25Z</time>
      </trkpt>
      <trkpt lat="48.67411" lon="1.75924">
        <ele>161</ele>
        <time>2024-10-03T09:00:32Z</time>
      </trkpt>
      <trkpt lat="48.67407" lon="1.75937">
        <ele>160.9</ele>
        <time>2024-10-03T09:00:39Z</time>
      </trkpt>
      <trkpt lat="48.67403" lon="1.7595">
        <ele>160.9</ele>
        <time>2024-10-03T09:00:46Z</time>
      </trkpt>
      <trkpt lat="48.67398" lon="1.75963">
        <ele>160.9</ele>
        <time>2024-10-03T09:00:53Z</time>
      </trkpt>
      <trkpt lat="48.67391" lon="1.75974">
        <ele>160.9</ele>
        <time>2024-10-03T09:01:00Z</time>
      </trkpt>
      <trkpt lat="48.67385" lon="1.75984">
        <ele>161.2</ele>
        <time>2024-10-03T09:01:07Z</time>
      </trkpt>
      <trkpt lat="48.67378" lon="1.75994">
        <ele>161.5</ele>
        <time>2024-10-03T09:01:15Z</time>
      </trkpt>
      <trkpt lat="48.6737" lon="1.76003">
        <ele>161.7</ele>
        <time>2024-10-03T09:01:23Z</time>
      </trkpt>
      <trkpt lat="48.67362" lon="1.76011">
        <ele>162</ele>
        <time>2024-10-03T09:01:31Z</time>
      </trkpt>
      <trkpt lat="48.67353" lon="1.76017">
        <ele>162.3</ele>
        <time>2024-10-03T09:01:39Z</time>
      </trkpt>
      <trkpt lat="48.67345" lon="1.76023">
        <ele>162.6</ele>
        <time>2024-10-03T09:01:46Z</time>
      </trkpt>
      <trkpt lat="48.67335" lon="1.76029">
        <ele>162.9</ele>
        <time>2024-10-03T09:01:54Z</time>
      </trkpt>
      <trkpt lat="48.67327" lon="1.76035">
        <ele>163</ele>
        <time>2024-10-03T09:02:01Z</time>
      </trkpt>
      <trkpt lat="48.67318" lon="1.7604">
        <ele>163.1</ele>
        <time>2024-10-03T09:02:08Z</time>
      </trkpt>
      <trkpt lat="48.67308" lon="1.76043">
        <ele>163.4</ele>
        <time>2024-10-03T09:02:15Z</time>
      </trkpt>
      <trkpt lat="48.67298" lon="1.76046">
        <ele>163.5</ele>
        <time>2024-10-03T09:02:22Z</time>
      </trkpt>
      <trkpt lat="48.67288" lon="1.76048">
        <ele>163.7</ele>
        <time>2024-10-03T09:02:29Z</time>
      </trkpt>
      <trkpt lat="48.67279" lon="1.7605">
        <ele>164</ele>
        <time>2024-10-03T09:02:36Z</time>
      </trkpt>
      <trkpt lat="48.67269" lon="1.76053">
        <ele>164</ele>
        <time>2024-10-03T09:02:43Z</time>
      </trkpt>
      <trkpt lat="48.67259" lon="1.76056">
        <ele>164</ele>
        <time>2024-10-03T09:02:50Z</time>
      </trkpt>
      <trkpt lat="48.6725" lon="1.7606">
        <ele>164</ele>
        <time>2024-10-03T09:02:57Z</time>
      </trkpt>
      <trkpt lat="48.67241" lon="1.76064">
        <ele>164</ele>
        <time>2024-10-03T09:03:04Z</time>
      </trkpt>
      <trkpt lat="48.67231" lon="1.76067">
        <ele>164</ele>
        <time>2024-10-03T09:03:11Z</time>
      </trkpt>
      <trkpt lat="48.67222" lon="1.76071">
        <ele>164</ele>
        <time>2024-10-03T09:03:18Z</time>
      </trkpt>
      <trkpt lat="48.67212" lon="1.76076">
        <ele>164.4</ele>
        <time>2024-10-03T09:03:25Z</time>
      </trkpt>
      <trkpt lat="48.67203" lon="1.76081">
        <ele>164.7</ele>
        <time>2024-10-03T09:03:32Z</time>
      </trkpt>
      <trkpt lat="48.67194" lon="1.76085">
        <ele>164.9</ele>
        <time>2024-10-03T09:03:39Z</time>
      </trkpt>
      <trkpt lat="48.67186" lon="1.7609">
        <ele>164.8</ele>
        <time>2024-10-03T09:03:46Z</time>
      </trkpt>
      <trkpt lat="48.67177" lon="1.76095">
        <ele>164.8</ele>
        <time>2024-10-03T09:03:53Z</time>
      </trkpt>
      <trkpt lat="48.67168" lon="1.761">
        <ele>165</ele>
        <time>2024-10-03T09:04:00Z</time>
      </trkpt>
      <trkpt lat="48.67158" lon="1.76106">
        <ele>165.3</ele>
        <time>2024-10-03T09:04:08Z</time>
      </trkpt>
      <trkpt lat="48.67149" lon="1.7611">
        <ele>165.6</ele>
        <time>2024-10-03T09:04:15Z</time>
      </trkpt>
      <trkpt lat="48.6714" lon="1.76113">
        <ele>165.9</ele>
        <time>2024-10-03T09:04:22Z</time>
      </trkpt>
      <trkpt lat="48.67131" lon="1.76118">
        <ele>165.7</ele>
        <time>2024-10-03T09:04:29Z</time>
      </trkpt>
      <trkpt lat="48.67122" lon="1.76124">
        <ele>165.5</ele>
        <time>2024-10-03T09:04:36Z</time>
      </trkpt>
      <trkpt lat="48.67113" lon="1.76129">
        <ele>165.3</ele>
        <time>2024-10-03T09:04:43Z</time>
      </trkpt>
      <trkpt lat="48.67104" lon="1.76134">
        <ele>165.4</ele>
        <time>2024-10-03T09:04:50Z</time>
      </trkpt>
      <trkpt lat="48.67097" lon="1.76141">
        <ele>165.5</ele>
        <time>2024-10-03T09:04:59Z</time>
      </trkpt>
      <trkpt lat="48.67088" lon="1.76148">
        <ele>165.5</ele>
        <time>2024-10-03T09:05:08Z</time>
      </trkpt>
      <trkpt lat="48.6708" lon="1.76154">
        <ele>165.5</ele>
        <time>2024-10-03T09:05:16Z</time>
      </trkpt>
      <trkpt lat="48.6707" lon="1.76159">
        <ele>165.6</ele>
        <time>2024-10-03T09:05:24Z</time>
      </trkpt>
      <trkpt lat="48.67061" lon="1.76165">
        <ele>165.8</ele>
        <time>2024-10-03T09:05:32Z</time>
      </trkpt>
      <trkpt lat="48.67053" lon="1.76171">
        <ele>166.1</ele>
        <time>2024-10-03T09:05:39Z</time>
      </trkpt>
      <trkpt lat="48.67044" lon="1.76178">
        <ele>166.3</ele>
        <time>2024-10-03T09:05:47Z</time>
      </trkpt>
      <trkpt lat="48.67035" lon="1.76185">
        <ele>166.2</ele>
        <time>2024-10-03T09:05:55Z</time>
      </trkpt>
      <trkpt lat="48.67026" lon="1.76189">
        <ele>166.3</ele>
        <time>2024-10-03T09:06:03Z</time>
      </trkpt>
      <trkpt lat="48.67017" lon="1.76193">
        <ele>166.4</ele>
        <time>2024-10-03T09:06:11Z</time>
      </trkpt>
      <trkpt lat="48.67008" lon="1.76197">
        <ele>166.7</ele>
        <time>2024-10-03T09:06:18Z</time>
      </trkpt>
      <trkpt lat="48.66999" lon="1.762">
        <ele>167</ele>
        <time>2024-10-03T09:06:26Z</time>
      </trkpt>
      <trkpt lat="48.6699" lon="1.76197">
        <ele>167</ele>
        <time>2024-10-03T09:06:33Z</time>
      </trkpt>
      <trkpt lat="48.66981" lon="1.76193">
        <ele>167</ele>
        <time>2024-10-03T09:06:40Z</time>
      </trkpt>
      <trkpt lat="48.66971" lon="1.76188">
        <ele>167.3</ele>
        <time>2024-10-03T09:06:48Z</time>
      </trkpt>
      <trkpt lat="48.66962" lon="1.76183">
        <ele>167.6</ele>
        <time>2024-10-03T09:06:55Z</time>
      </trkpt>
      <trkpt lat="48.66953" lon="1.76181">
        <ele>167.8</ele>
        <time>2024-10-03T09:07:02Z</time>
      </trkpt>
      <trkpt lat="48.66945" lon="1.76172">
        <ele>168</ele>
        <time>2024-10-03T09:07:09Z</time>
      </trkpt>
      <trkpt lat="48.66937" lon="1.76164">
        <ele>168.3</ele>
        <time>2024-10-03T09:07:16Z</time>
      </trkpt>
      <trkpt lat="48.66928" lon="1.7616">
        <ele>168.6</ele>
        <time>2024-10-03T09:07:23Z</time>
      </trkpt>
      <trkpt lat="48.66919" lon="1.76157">
        <ele>168.9</ele>
        <time>2024-10-03T09:07:30Z</time>
      </trkpt>
      <trkpt lat="48.66909" lon="1.76153">
        <ele>169</ele>
        <time>2024-10-03T09:07:36Z</time>
      </trkpt>
      <trkpt lat="48.669" lon="1.76146">
        <ele>169</ele>
        <time>2024-10-03T09:07:42Z</time>
      </trkpt>
      <trkpt lat="48.6689" lon="1.76143">
        <ele>169</ele>
        <time>2024-10-03T09:07:49Z</time>
      </trkpt>
      <trkpt lat="48.6688" lon="1.76139">
        <ele>169</ele>
        <time>2024-10-03T09:07:57Z</time>
      </trkpt>
      <trkpt lat="48.66871" lon="1.76133">
        <ele>169</ele>
        <time>2024-10-03T09:08:05Z</time>
      </trkpt>
      <trkpt lat="48.66862" lon="1.76126">
        <ele>169</ele>
        <time>2024-10-03T09:08:12Z</time>
      </trkpt>
      <trkpt lat="48.66853" lon="1.76121">
        <ele>169.2</ele>
        <time>2024-10-03T09:08:19Z</time>
      </trkpt>
      <trkpt lat="48.66845" lon="1.76112">
        <ele>169.6</ele>
        <time>2024-10-03T09:08:27Z</time>
      </trkpt>
      <trkpt lat="48.66835" lon="1.76109">
        <ele>169.9</ele>
        <time>2024-10-03T09:08:35Z</time>
      </trkpt>
      <trkpt lat="48.66827" lon="1.76102">
        <ele>170</ele>
        <time>2024-10-03T09:08:42Z</time>
      </trkpt>
      <trkpt lat="48.66819" lon="1.76094">
        <ele>170</ele>
        <time>2024-10-03T09:08:49Z</time>
      </trkpt>
      <trkpt lat="48.66811" lon="1.76084">
        <ele>170</ele>
        <time>2024-10-03T09:08:55Z</time>
      </trkpt>
      <trkpt lat="48.66805" lon="1.76073">
        <ele>170</ele>
        <time>2024-10-03T09:09:01Z</time>
      </trkpt>
      <trkpt lat="48.66797" lon="1.76063">
        <ele>170</ele>
        <time>2024-10-03T09:09:07Z</time>
      </trkpt>
      <trkpt lat="48.6679" lon="1.76053">
        <ele>170</ele>
        <time>2024-10-03T09:09:14Z</time>
      </trkpt>
      <trkpt lat="48.66784" lon="1.76042">
        <ele>170</ele>
        <time>2024-10-03T09:09:20Z</time>
      </trkpt>
      <trkpt lat="48.66776" lon="1.76033">
        <ele>170</ele>
        <time>2024-10-03T09:09:28Z</time>
      </trkpt>
      <trkpt lat="48.66769" lon="1.76023">
        <ele>170</ele>
        <time>2024-10-03T09:09:34Z</time>
      </trkpt>
      <trkpt lat="48.66765" lon="1.76011">
        <ele>170</ele>
        <time>2024-10-03T09:09:40Z</time>
      </trkpt>
      <trkpt lat="48.66758" lon="1.75999">
        <ele>170</ele>
        <time>2024-10-03T09:09:47Z</time>
      </trkpt>
      <trkpt lat="48.66753" lon="1.75987">
        <ele>170</ele>
        <time>2024-10-03T09:09:52Z</time>
      </trkpt>
      <trkpt lat="48.66749" lon="1.75973">
        <ele>170</ele>
        <time>2024-10-03T09:09:58Z</time>
      </trkpt>
      <trkpt lat="48.66745" lon="1.7596">
        <ele>170.1</ele>
        <time>2024-10-03T09:10:03Z</time>
      </trkpt>
      <trkpt lat="48.66741" lon="1.75947">
        <ele>170.3</ele>
        <time>2024-10-03T09:10:09Z</time>
      </trkpt>
      <trkpt lat="48.66735" lon="1.75935">
        <ele>170.6</ele>
        <time>2024-10-03T09:10:16Z</time>
      </trkpt>
      <trkpt lat="48.66728" lon="1.75924">
        <ele>170.8</ele>
        <time>2024-10-03T09:10:23Z</time>
      </trkpt>
      <trkpt lat="48.66723" lon="1.75911">
        <ele>171</ele>
        <time>2024-10-03T09:10:29Z</time>
      </trkpt>
      <trkpt lat="48.66718" lon="1.75899">
        <ele>170.9</ele>
        <time>2024-10-03T09:10:36Z</time>
      </trkpt>
      <trkpt lat="48.66712" lon="1.75887">
        <ele>170.6</ele>
        <time>2024-10-03T09:10:43Z</time>
      </trkpt>
      <trkpt lat="48.66705" lon="1.75876">
        <ele>170.4</ele>
        <time>2024-10-03T09:10:50Z</time>
      </trkpt>
      <trkpt lat="48.66697" lon="1.75865">
        <ele>170.1</ele>
        <time>2024-10-03T09:10:57Z</time>
      </trkpt>
      <trkpt lat="48.6669" lon="1.75855">
        <ele>170</ele>
        <time>2024-10-03T09:11:04Z</time>
      </trkpt>
      <trkpt lat="48.66683" lon="1.75845">
        <ele>170</ele>
        <time>2024-10-03T09:11:10Z</time>
      </trkpt>
      <trkpt lat="48.66677" lon="1.75832">
        <ele>170</ele>
        <time>2024-10-03T09:11:16Z</time>
      </trkpt>
      <trkpt lat="48.6667" lon="1.75821">
        <ele>170</ele>
        <time>2024-10-03T09:11:23Z</time>
      </trkpt>
      <trkpt lat="48.66665" lon="1.75809">
        <ele>170</ele>
        <time>2024-10-03T09:11:29Z</time>
      </trkpt>
      <trkpt lat="48.66658" lon="1.75798">
        <ele>170</ele>
        <time>2024-10-03T09:11:35Z</time>
      </trkpt>
      <trkpt lat="48.66653" lon="1.75786">
        <ele>170</ele>
        <time>2024-10-03T09:11:41Z</time>
      </trkpt>
      <trkpt lat="48.66647" lon="1.75773">
        <ele>170</ele>
        <time>2024-10-03T09:11:48Z</time>
      </trkpt>
      <trkpt lat="48.6664" lon="1.7576">
        <ele>170</ele>
        <time>2024-10-03T09:11:54Z</time>
      </trkpt>
      <trkpt lat="48.66635" lon="1.75749">
        <ele>170</ele>
        <time>2024-10-03T09:11:59Z</time>
      </trkpt>
      <trkpt lat="48.66631" lon="1.75737">
        <ele>170</ele>
        <time>2024-10-03T09:12:04Z</time>
      </trkpt>
      <trkpt lat="48.66623" lon="1.75726">
        <ele>170</ele>
        <time>2024-10-03T09:12:12Z</time>
      </trkpt>
      <trkpt lat="48.66616" lon="1.75716">
        <ele>170</ele>
        <time>2024-10-03T09:12:21Z</time>
      </trkpt>
      <trkpt lat="48.6661" lon="1.75705">
        <ele>170</ele>
        <time>2024-10-03T09:12:27Z</time>
      </trkpt>
      <trkpt lat="48.66604" lon="1.75693">
        <ele>170</ele>
        <time>2024-10-03T09:12:33Z</time>
      </trkpt>
      <trkpt lat="48.66596" lon="1.75683">
        <ele>170</ele>
        <time>2024-10-03T09:12:41Z</time>
      </trkpt>
      <trkpt lat="48.66587" lon="1.75677">
        <ele>170</ele>
        <time>2024-10-03T09:12:49Z</time>
      </trkpt>
      <trkpt lat="48.66579" lon="1.7567">
        <ele>170</ele>
        <time>2024-10-03T09:12:57Z</time>
      </trkpt>
      <trkpt lat="48.6657" lon="1.75663">
        <ele>170</ele>
        <time>2024-10-03T09:13:05Z</time>
      </trkpt>
      <trkpt lat="48.66562" lon="1.75657">
        <ele>170</ele>
        <time>2024-10-03T09:13:13Z</time>
      </trkpt>
      <trkpt lat="48.66553" lon="1.75651">
        <ele>170</ele>
        <time>2024-10-03T09:13:22Z</time>
      </trkpt>
      <trkpt lat="48.66545" lon="1.75641">
        <ele>170</ele>
        <time>2024-10-03T09:13:30Z</time>
      </trkpt>
      <trkpt lat="48.66535" lon="1.75637">
        <ele>170</ele>
        <time>2024-10-03T09:13:37Z</time>
      </trkpt>
      <trkpt lat="48.66527" lon="1.75629">
        <ele>170</ele>
        <time>2024-10-03T09:13:43Z</time>
      </trkpt>
      <trkpt lat="48.66518" lon="1.75624">
        <ele>170</ele>
        <time>2024-10-03T09:13:51Z</time>
      </trkpt>
      <trkpt lat="48.6651" lon="1.75615">
        <ele>170</ele>
        <time>2024-10-03T09:13:58Z</time>
      </trkpt>
      <trkpt lat="48.66502" lon="1.75608">
        <ele>170</ele>
        <time>2024-10-03T09:14:06Z</time>
      </trkpt>
      <trkpt lat="48.66491" lon="1.75607">
        <ele>170</ele>
        <time>2024-10-03T09:14:14Z</time>
      </trkpt>
      <trkpt lat="48.66481" lon="1.75608">
        <ele>170</ele>
        <time>2024-10-03T09:14:20Z</time>
      </trkpt>
      <trkpt lat="48.66472" lon="1.75605">
        <ele>170</ele>
        <time>2024-10-03T09:14:26Z</time>
      </trkpt>
      <trkpt lat="48.66462" lon="1.75602">
        <ele>170</ele>
        <time>2024-10-03T09:14:32Z</time>
      </trkpt>
      <trkpt lat="48.66452" lon="1.75601">
        <ele>170</ele>
        <time>2024-10-03T09:14:38Z</time>
      </trkpt>
      <trkpt lat="48.66443" lon="1.75594">
        <ele>170</ele>
        <time>2024-10-03T09:14:44Z</time>
      </trkpt>
      <trkpt lat="48.66434" lon="1.75587">
        <ele>170</ele>
        <time>2024-10-03T09:14:51Z</time>
      </trkpt>
      <trkpt lat="48.66424" lon="1.75582">
        <ele>170</ele>
        <time>2024-10-03T09:14:57Z</time>
      </trkpt>
      <trkpt lat="48.66415" lon="1.75576">
        <ele>170</ele>
        <time>2024-10-03T09:15:03Z</time>
      </trkpt>
      <trkpt lat="48.66408" lon="1.75566">
        <ele>170</ele>
        <time>2024-10-03T09:15:09Z</time>
      </trkpt>
      <trkpt lat="48.664" lon="1.75557">
        <ele>170</ele>
        <time>2024-10-03T09:15:16Z</time>
      </trkpt>
      <trkpt lat="48.66392" lon="1.75546">
        <ele>170</ele>
        <time>2024-10-03T09:15:22Z</time>
      </trkpt>
      <trkpt lat="48.66385" lon="1.75537">
        <ele>170</ele>
        <time>2024-10-03T09:15:28Z</time>
      </trkpt>
      <trkpt lat="48.66377" lon="1.75529">
        <ele>170</ele>
        <time>2024-10-03T09:15:35Z</time>
      </trkpt>
      <trkpt lat="48.6637" lon="1.75518">
        <ele>170</ele>
        <time>2024-10-03T09:15:42Z</time>
      </trkpt>
      <trkpt lat="48.66364" lon="1.75506">
        <ele>170</ele>
        <time>2024-10-03T09:15:48Z</time>
      </trkpt>
      <trkpt lat="48.66359" lon="1.75493">
        <ele>169.9</ele>
        <time>2024-10-03T09:15:54Z</time>
      </trkpt>
      <trkpt lat="48.66353" lon="1.75482">
        <ele>169.7</ele>
        <time>2024-10-03T09:16:00Z</time>
      </trkpt>
      <trkpt lat="48.66349" lon="1.75467">
        <ele>169.6</ele>
        <time>2024-10-03T09:16:06Z</time>
      </trkpt>
      <trkpt lat="48.66345" lon="1.75455">
        <ele>169.8</ele>
        <time>2024-10-03T09:16:12Z</time>
      </trkpt>
      <trkpt lat="48.6634" lon="1.75442">
        <ele>169.9</ele>
        <time>2024-10-03T09:16:18Z</time>
      </trkpt>
      <trkpt lat="48.66337" lon="1.75429">
        <ele>169.5</ele>
        <time>2024-10-03T09:16:23Z</time>
      </trkpt>
      <trkpt lat="48.66333" lon="1.75415">
        <ele>169</ele>
        <time>2024-10-03T09:16:29Z</time>
      </trkpt>
      <trkpt lat="48.66325" lon="1.75405">
        <ele>169</ele>
        <time>2024-10-03T09:16:36Z</time>
      </trkpt>
      <trkpt lat="48.66322" lon="1.75391">
        <ele>169</ele>
        <time>2024-10-03T09:16:42Z</time>
      </trkpt>
      <trkpt lat="48.66319" lon="1.75378">
        <ele>169</ele>
        <time>2024-10-03T09:16:48Z</time>
      </trkpt>
      <trkpt lat="48.66316" lon="1.75363">
        <ele>169</ele>
        <time>2024-10-03T09:16:55Z</time>
      </trkpt>
      <trkpt lat="48.66314" lon="1.7535">
        <ele>169.1</ele>
        <time>2024-10-03T09:17:01Z</time>
      </trkpt>
      <trkpt lat="48.66311" lon="1.75336">
        <ele>169.2</ele>
        <time>2024-10-03T09:17:06Z</time>
      </trkpt>
      <trkpt lat="48.66308" lon="1.7532">
        <ele>169.1</ele>
        <time>2024-10-03T09:17:12Z</time>
      </trkpt>
      <trkpt lat="48.66305" lon="1.75306">
        <ele>169</ele>
        <time>2024-10-03T09:17:18Z</time>
      </trkpt>
      <trkpt lat="48.66302" lon="1.75292">
        <ele>169</ele>
        <time>2024-10-03T09:17:24Z</time>
      </trkpt>
      <trkpt lat="48.66299" lon="1.75278">
        <ele>169</ele>
        <time>2024-10-03T09:17:30Z</time>
      </trkpt>
      <trkpt lat="48.66296" lon="1.75264">
        <ele>169</ele>
        <time>2024-10-03T09:17:36Z</time>
      </trkpt>
      <trkpt lat="48.66295" lon="1.7525">
        <ele>169</ele>
        <time>2024-10-03T09:17:42Z</time>
      </trkpt>
      <trkpt lat="48.66293" lon="1.75236">
        <ele>169.3</ele>
        <time>2024-10-03T09:17:48Z</time>
      </trkpt>
      <trkpt lat="48.66292" lon="1.75222">
        <ele>169.5</ele>
        <time>2024-10-03T09:17:54Z</time>
      </trkpt>
      <trkpt lat="48.6629" lon="1.75208">
        <ele>169.5</ele>
        <time>2024-10-03T09:18:00Z</time>
      </trkpt>
      <trkpt lat="48.66288" lon="1.75193">
        <ele>169.4</ele>
        <time>2024-10-03T09:18:07Z</time>
      </trkpt>
      <trkpt lat="48.66287" lon="1.75177">
        <ele>169.3</ele>
        <time>2024-10-03T09:18:14Z</time>
      </trkpt>
      <trkpt lat="48.66285" lon="1.75163">
        <ele>169.3</ele>
        <time>2024-10-03T09:18:21Z</time>
      </trkpt>
      <trkpt lat="48.66284" lon="1.75148">
        <ele>169.2</ele>
        <time>2024-10-03T09:18:29Z</time>
      </trkpt>
      <trkpt lat="48.66283" lon="1.75134">
        <ele>169.2</ele>
        <time>2024-10-03T09:18:37Z</time>
      </trkpt>
      <trkpt lat="48.66282" lon="1.7512">
        <ele>169.1</ele>
        <time>2024-10-03T09:18:43Z</time>
      </trkpt>
      <trkpt lat="48.66281" lon="1.75104">
        <ele>169.1</ele>
        <time>2024-10-03T09:18:48Z</time>
      </trkpt>
      <trkpt lat="48.66278" lon="1.75091">
        <ele>169</ele>
        <time>2024-10-03T09:18:54Z</time>
      </trkpt>
      <trkpt lat="48.66275" lon="1.75077">
        <ele>169</ele>
        <time>2024-10-03T09:19:01Z</time>
      </trkpt>
      <trkpt lat="48.66272" lon="1.75063">
        <ele>169</ele>
        <time>2024-10-03T09:19:08Z</time>
      </trkpt>
      <trkpt lat="48.6627" lon="1.7505">
        <ele>169</ele>
        <time>2024-10-03T09:19:14Z</time>
      </trkpt>
      <trkpt lat="48.66267" lon="1.75035">
        <ele>169</ele>
        <time>2024-10-03T09:19:21Z</time>
      </trkpt>
      <trkpt lat="48.66265" lon="1.7502">
        <ele>169</ele>
        <time>2024-10-03T09:19:27Z</time>
      </trkpt>
      <trkpt lat="48.66262" lon="1.75006">
        <ele>169</ele>
        <time>2024-10-03T09:19:34Z</time>
      </trkpt>
      <trkpt lat="48.66257" lon="1.74993">
        <ele>169</ele>
        <time>2024-10-03T09:19:42Z</time>
      </trkpt>
      <trkpt lat="48.66253" lon="1.74978">
        <ele>169</ele>
        <time>2024-10-03T09:19:48Z</time>
      </trkpt>
      <trkpt lat="48.6625" lon="1.74965">
        <ele>169</ele>
        <time>2024-10-03T09:19:54Z</time>
      </trkpt>
      <trkpt lat="48.66245" lon="1.74951">
        <ele>168.8</ele>
        <time>2024-10-03T09:20:01Z</time>
      </trkpt>
      <trkpt lat="48.66242" lon="1.74936">
        <ele>168.7</ele>
        <time>2024-10-03T09:20:07Z</time>
      </trkpt>
      <trkpt lat="48.66239" lon="1.74923">
        <ele>168.6</ele>
        <time>2024-10-03T09:20:12Z</time>
      </trkpt>
      <trkpt lat="48.66234" lon="1.74911">
        <ele>168.4</ele>
        <time>2024-10-03T09:20:18Z</time>
      </trkpt>
      <trkpt lat="48.66231" lon="1.74897">
        <ele>168.3</ele>
        <time>2024-10-03T09:20:24Z</time>
      </trkpt>
      <trkpt lat="48.66225" lon="1.74884">
        <ele>168.3</ele>
        <time>2024-10-03T09:20:32Z</time>
      </trkpt>
      <trkpt lat="48.66224" lon="1.7487">
        <ele>168.7</ele>
        <time>2024-10-03T09:20:46Z</time>
      </trkpt>
      <trkpt lat="48.66219" lon="1.74858">
        <ele>168.9</ele>
        <time>2024-10-03T09:21:41Z</time>
      </trkpt>
      <trkpt lat="48.6621" lon="1.74851">
        <ele>168.5</ele>
        <time>2024-10-03T09:21:50Z</time>
      </trkpt>
      <trkpt lat="48.66205" lon="1.74839">
        <ele>168.4</ele>
        <time>2024-10-03T09:21:57Z</time>
      </trkpt>
      <trkpt lat="48.66203" lon="1.74826">
        <ele>168.2</ele>
        <time>2024-10-03T09:22:15Z</time>
      </trkpt>
      <trkpt lat="48.66203" lon="1.74812">
        <ele>168.1</ele>
        <time>2024-10-03T09:22:35Z</time>
      </trkpt>
      <trkpt lat="48.66208" lon="1.748">
        <ele>168</ele>
        <time>2024-10-03T09:22:42Z</time>
      </trkpt>
      <trkpt lat="48.66211" lon="1.74787">
        <ele>168</ele>
        <time>2024-10-03T09:22:49Z</time>
      </trkpt>
      <trkpt lat="48.66212" lon="1.74773">
        <ele>168</ele>
        <time>2024-10-03T09:22:57Z</time>
      </trkpt>
      <trkpt lat="48.66215" lon="1.7476">
        <ele>168</ele>
        <time>2024-10-03T09:23:03Z</time>
      </trkpt>
      <trkpt lat="48.66219" lon="1.74745">
        <ele>168</ele>
        <time>2024-10-03T09:23:10Z</time>
      </trkpt>
      <trkpt lat="48.66221" lon="1.74731">
        <ele>168</ele>
        <time>2024-10-03T09:23:16Z</time>
      </trkpt>
      <trkpt lat="48.66225" lon="1.74717">
        <ele>168.1</ele>
        <time>2024-10-03T09:23:21Z</time>
      </trkpt>
      <trkpt lat="48.66225" lon="1.74703">
        <ele>168.1</ele>
        <time>2024-10-03T09:23:31Z</time>
      </trkpt>
      <trkpt lat="48.66231" lon="1.74693">
        <ele>168.3</ele>
        <time>2024-10-03T09:23:37Z</time>
      </trkpt>
      <trkpt lat="48.6624" lon="1.74684">
        <ele>168.6</ele>
        <time>2024-10-03T09:23:42Z</time>
      </trkpt>
      <trkpt lat="48.66245" lon="1.74672">
        <ele>168.8</ele>
        <time>2024-10-03T09:23:46Z</time>
      </trkpt>
      <trkpt lat="48.66252" lon="1.74659">
        <ele>169</ele>
        <time>2024-10-03T09:23:52Z</time>
      </trkpt>
      <trkpt lat="48.66257" lon="1.74648">
        <ele>169</ele>
        <time>2024-10-03T09:23:57Z</time>
      </trkpt>
      <trkpt lat="48.66264" lon="1.74637">
        <ele>169</ele>
        <time>2024-10-03T09:24:03Z</time>
      </trkpt>
      <trkpt lat="48.6627" lon="1.74624">
        <ele>168.9</ele>
        <time>2024-10-03T09:24:10Z</time>
      </trkpt>
      <trkpt lat="48.66276" lon="1.74613">
        <ele>168.9</ele>
        <time>2024-10-03T09:24:16Z</time>
      </trkpt>
      <trkpt lat="48.66283" lon="1.74602">
        <ele>169</ele>
        <time>2024-10-03T09:24:23Z</time>
      </trkpt>
      <trkpt lat="48.66289" lon="1.7459">
        <ele>169</ele>
        <time>2024-10-03T09:24:30Z</time>
      </trkpt>
      <trkpt lat="48.66296" lon="1.74579">
        <ele>169</ele>
        <time>2024-10-03T09:24:37Z</time>
      </trkpt>
      <trkpt lat="48.66301" lon="1.74568">
        <ele>169</ele>
        <time>2024-10-03T09:24:44Z</time>
      </trkpt>
      <trkpt lat="48.66307" lon="1.74556">
        <ele>169</ele>
        <time>2024-10-03T09:24:51Z</time>
      </trkpt>
      <trkpt lat="48.6631" lon="1.74542">
        <ele>169</ele>
        <time>2024-10-03T09:24:58Z</time>
      </trkpt>
      <trkpt lat="48.66318" lon="1.74534">
        <ele>169</ele>
        <time>2024-10-03T09:25:06Z</time>
      </trkpt>
      <trkpt lat="48.66327" lon="1.7454">
        <ele>169</ele>
        <time>2024-10-03T09:25:13Z</time>
      </trkpt>
      <trkpt lat="48.66334" lon="1.7455">
        <ele>169</ele>
        <time>2024-10-03T09:25:20Z</time>
      </trkpt>
      <trkpt lat="48.6634" lon="1.74561">
        <ele>169</ele>
        <time>2024-10-03T09:25:27Z</time>
      </trkpt>
      <trkpt lat="48.66349" lon="1.74569">
        <ele>169</ele>
        <time>2024-10-03T09:25:34Z</time>
      </trkpt>
      <trkpt lat="48.66359" lon="1.74574">
        <ele>169</ele>
        <time>2024-10-03T09:25:42Z</time>
      </trkpt>
      <trkpt lat="48.66367" lon="1.74568">
        <ele>169</ele>
        <time>2024-10-03T09:25:50Z</time>
      </trkpt>
      <trkpt lat="48.66376" lon="1.74561">
        <ele>169</ele>
        <time>2024-10-03T09:25:57Z</time>
      </trkpt>
      <trkpt lat="48.66384" lon="1.74554">
        <ele>169</ele>
        <time>2024-10-03T09:26:04Z</time>
      </trkpt>
      <trkpt lat="48.66393" lon="1.74549">
        <ele>169</ele>
        <time>2024-10-03T09:26:11Z</time>
      </trkpt>
      <trkpt lat="48.66403" lon="1.74547">
        <ele>169</ele>
        <time>2024-10-03T09:26:18Z</time>
      </trkpt>
      <trkpt lat="48.66413" lon="1.74546">
        <ele>169</ele>
        <time>2024-10-03T09:26:28Z</time>
      </trkpt>
      <trkpt lat="48.66423" lon="1.74543">
        <ele>169.1</ele>
        <time>2024-10-03T09:26:35Z</time>
      </trkpt>
      <trkpt lat="48.66431" lon="1.74537">
        <ele>169.2</ele>
        <time>2024-10-03T09:26:41Z</time>
      </trkpt>
      <trkpt lat="48.6644" lon="1.7453">
        <ele>169.1</ele>
        <time>2024-10-03T09:26:48Z</time>
      </trkpt>
      <trkpt lat="48.6645" lon="1.74524">
        <ele>169.2</ele>
        <time>2024-10-03T09:26:56Z</time>
      </trkpt>
      <trkpt lat="48.6646" lon="1.74522">
        <ele>169.4</ele>
        <time>2024-10-03T09:27:03Z</time>
      </trkpt>
      <trkpt lat="48.66468" lon="1.74514">
        <ele>169.4</ele>
        <time>2024-10-03T09:27:10Z</time>
      </trkpt>
      <trkpt lat="48.66475" lon="1.74504">
        <ele>169.2</ele>
        <time>2024-10-03T09:27:18Z</time>
      </trkpt>
      <trkpt lat="48.66482" lon="1.74495">
        <ele>169.4</ele>
        <time>2024-10-03T09:27:26Z</time>
      </trkpt>
      <trkpt lat="48.66492" lon="1.74491">
        <ele>169.6</ele>
        <time>2024-10-03T09:27:32Z</time>
      </trkpt>
      <trkpt lat="48.66501" lon="1.74486">
        <ele>169.5</ele>
        <time>2024-10-03T09:27:38Z</time>
      </trkpt>
      <trkpt lat="48.66509" lon="1.74481">
        <ele>169.2</ele>
        <time>2024-10-03T09:27:44Z</time>
      </trkpt>
      <trkpt lat="48.66518" lon="1.74475">
        <ele>169</ele>
        <time>2024-10-03T09:27:50Z</time>
      </trkpt>
      <trkpt lat="48.66527" lon="1.7447">
        <ele>169</ele>
        <time>2024-10-03T09:27:56Z</time>
      </trkpt>
      <trkpt lat="48.66535" lon="1.74465">
        <ele>169</ele>
        <time>2024-10-03T09:28:03Z</time>
      </trkpt>
      <trkpt lat="48.66544" lon="1.74459">
        <ele>169</ele>
        <time>2024-10-03T09:28:10Z</time>
      </trkpt>
      <trkpt lat="48.66553" lon="1.74453">
        <ele>169</ele>
        <time>2024-10-03T09:28:17Z</time>
      </trkpt>
      <trkpt lat="48.66563" lon="1.74451">
        <ele>169</ele>
        <time>2024-10-03T09:28:24Z</time>
      </trkpt>
      <trkpt lat="48.66572" lon="1.74448">
        <ele>169</ele>
        <time>2024-10-03T09:28:30Z</time>
      </trkpt>
      <trkpt lat="48.66581" lon="1.74445">
        <ele>169</ele>
        <time>2024-10-03T09:28:37Z</time>
      </trkpt>
      <trkpt lat="48.66588" lon="1.74435">
        <ele>169</ele>
        <time>2024-10-03T09:28:47Z</time>
      </trkpt>
      <trkpt lat="48.66597" lon="1.74431">
        <ele>169</ele>
        <time>2024-10-03T09:28:54Z</time>
      </trkpt>
      <trkpt lat="48.66606" lon="1.74425">
        <ele>169</ele>
        <time>2024-10-03T09:29:00Z</time>
      </trkpt>
      <trkpt lat="48.66615" lon="1.74419">
        <ele>169</ele>
        <time>2024-10-03T09:29:06Z</time>
      </trkpt>
      <trkpt lat="48.66623" lon="1.74411">
        <ele>169</ele>
        <time>2024-10-03T09:29:12Z</time>
      </trkpt>
      <trkpt lat="48.66631" lon="1.74402">
        <ele>169</ele>
        <time>2024-10-03T09:29:18Z</time>
      </trkpt>
      <trkpt lat="48.66639" lon="1.74395">
        <ele>169</ele>
        <time>2024-10-03T09:29:24Z</time>
      </trkpt>
      <trkpt lat="48.66647" lon="1.74385">
        <ele>169</ele>
        <time>2024-10-03T09:29:30Z</time>
      </trkpt>
      <trkpt lat="48.66653" lon="1.74375">
        <ele>169</ele>
        <time>2024-10-03T09:29:36Z</time>
      </trkpt>
      <trkpt lat="48.6666" lon="1.74366">
        <ele>169</ele>
        <time>2024-10-03T09:29:43Z</time>
      </trkpt>
      <trkpt lat="48.66666" lon="1.74355">
        <ele>169</ele>
        <time>2024-10-03T09:29:49Z</time>
      </trkpt>
      <trkpt lat="48.66674" lon="1.74347">
        <ele>169</ele>
        <time>2024-10-03T09:29:55Z</time>
      </trkpt>
      <trkpt lat="48.66681" lon="1.74338">
        <ele>169</ele>
        <time>2024-10-03T09:30:01Z</time>
      </trkpt>
      <trkpt lat="48.6669" lon="1.74328">
        <ele>169</ele>
        <time>2024-10-03T09:30:08Z</time>
      </trkpt>
      <trkpt lat="48.66698" lon="1.74318">
        <ele>168.9</ele>
        <time>2024-10-03T09:30:15Z</time>
      </trkpt>
      <trkpt lat="48.66706" lon="1.74313">
        <ele>168.9</ele>
        <time>2024-10-03T09:30:22Z</time>
      </trkpt>
      <trkpt lat="48.66714" lon="1.74303">
        <ele>169</ele>
        <time>2024-10-03T09:30:28Z</time>
      </trkpt>
      <trkpt lat="48.66721" lon="1.74293">
        <ele>169</ele>
        <time>2024-10-03T09:30:34Z</time>
      </trkpt>
      <trkpt lat="48.66727" lon="1.74281">
        <ele>168.8</ele>
        <time>2024-10-03T09:30:41Z</time>
      </trkpt>
      <trkpt lat="48.66733" lon="1.74271">
        <ele>168.7</ele>
        <time>2024-10-03T09:30:48Z</time>
      </trkpt>
      <trkpt lat="48.66741" lon="1.74263">
        <ele>168.7</ele>
        <time>2024-10-03T09:30:54Z</time>
      </trkpt>
      <trkpt lat="48.66748" lon="1.74254">
        <ele>168.8</ele>
        <time>2024-10-03T09:31:00Z</time>
      </trkpt>
      <trkpt lat="48.66756" lon="1.74247">
        <ele>168.8</ele>
        <time>2024-10-03T09:31:08Z</time>
      </trkpt>
      <trkpt lat="48.66764" lon="1.74237">
        <ele>168.7</ele>
        <time>2024-10-03T09:31:16Z</time>
      </trkpt>
      <trkpt lat="48.6677" lon="1.74227">
        <ele>168.9</ele>
        <time>2024-10-03T09:31:22Z</time>
      </trkpt>
      <trkpt lat="48.66778" lon="1.74217">
        <ele>169</ele>
        <time>2024-10-03T09:31:29Z</time>
      </trkpt>
      <trkpt lat="48.66786" lon="1.7421">
        <ele>169</ele>
        <time>2024-10-03T09:31:36Z</time>
      </trkpt>
      <trkpt lat="48.66795" lon="1.74204">
        <ele>169</ele>
        <time>2024-10-03T09:31:43Z</time>
      </trkpt>
      <trkpt lat="48.66803" lon="1.74196">
        <ele>169</ele>
        <time>2024-10-03T09:31:50Z</time>
      </trkpt>
      <trkpt lat="48.6681" lon="1.74187">
        <ele>169</ele>
        <time>2024-10-03T09:31:56Z</time>
      </trkpt>
      <trkpt lat="48.66817" lon="1.74177">
        <ele>169</ele>
        <time>2024-10-03T09:32:02Z</time>
      </trkpt>
      <trkpt lat="48.66826" lon="1.74169">
        <ele>169</ele>
        <time>2024-10-03T09:32:09Z</time>
      </trkpt>
      <trkpt lat="48.66834" lon="1.74161">
        <ele>169</ele>
        <time>2024-10-03T09:32:15Z</time>
      </trkpt>
      <trkpt lat="48.66843" lon="1.74154">
        <ele>169</ele>
        <time>2024-10-03T09:32:22Z</time>
      </trkpt>
      <trkpt lat="48.66852" lon="1.74145">
        <ele>169</ele>
        <time>2024-10-03T09:32:29Z</time>
      </trkpt>
      <trkpt lat="48.66856" lon="1.74131">
        <ele>169</ele>
        <time>2024-10-03T09:32:38Z</time>
      </trkpt>
      <trkpt lat="48.66863" lon="1.74121">
        <ele>169</ele>
        <time>2024-10-03T09:32:45Z</time>
      </trkpt>
      <trkpt lat="48.6687" lon="1.74113">
        <ele>169</ele>
        <time>2024-10-03T09:32:52Z</time>
      </trkpt>
      <trkpt lat="48.66878" lon="1.74104">
        <ele>169</ele>
        <time>2024-10-03T09:32:59Z</time>
      </trkpt>
      <trkpt lat="48.66885" lon="1.74094">
        <ele>169</ele>
        <time>2024-10-03T09:33:06Z</time>
      </trkpt>
      <trkpt lat="48.66892" lon="1.74084">
        <ele>168.9</ele>
        <time>2024-10-03T09:33:12Z</time>
      </trkpt>
      <trkpt lat="48.66898" lon="1.74073">
        <ele>168.8</ele>
        <time>2024-10-03T09:33:18Z</time>
      </trkpt>
      <trkpt lat="48.66905" lon="1.74062">
        <ele>168.9</ele>
        <time>2024-10-03T09:33:24Z</time>
      </trkpt>
      <trkpt lat="48.66912" lon="1.74052">
        <ele>169</ele>
        <time>2024-10-03T09:33:30Z</time>
      </trkpt>
      <trkpt lat="48.66919" lon="1.74041">
        <ele>168.9</ele>
        <time>2024-10-03T09:33:37Z</time>
      </trkpt>
      <trkpt lat="48.66926" lon="1.7403">
        <ele>168.7</ele>
        <time>2024-10-03T09:33:44Z</time>
      </trkpt>
      <trkpt lat="48.66932" lon="1.74018">
        <ele>168.4</ele>
        <time>2024-10-03T09:33:51Z</time>
      </trkpt>
      <trkpt lat="48.66939" lon="1.74008">
        <ele>168.2</ele>
        <time>2024-10-03T09:33:58Z</time>
      </trkpt>
      <trkpt lat="48.66945" lon="1.73996">
        <ele>168.1</ele>
        <time>2024-10-03T09:34:05Z</time>
      </trkpt>
      <trkpt lat="48.66951" lon="1.73986">
        <ele>168.4</ele>
        <time>2024-10-03T09:34:12Z</time>
      </trkpt>
      <trkpt lat="48.66959" lon="1.73976">
        <ele>168.4</ele>
        <time>2024-10-03T09:34:19Z</time>
      </trkpt>
      <trkpt lat="48.66966" lon="1.73965">
        <ele>168.2</ele>
        <time>2024-10-03T09:34:25Z</time>
      </trkpt>
      <trkpt lat="48.66974" lon="1.73957">
        <ele>168</ele>
        <time>2024-10-03T09:34:31Z</time>
      </trkpt>
      <trkpt lat="48.66981" lon="1.73946">
        <ele>168</ele>
        <time>2024-10-03T09:34:39Z</time>
      </trkpt>
      <trkpt lat="48.66988" lon="1.73936">
        <ele>168.1</ele>
        <time>2024-10-03T09:34:47Z</time>
      </trkpt>
      <trkpt lat="48.66993" lon="1.73924">
        <ele>168.2</ele>
        <time>2024-10-03T09:34:53Z</time>
      </trkpt>
      <trkpt lat="48.67001" lon="1.73917">
        <ele>168</ele>
        <time>2024-10-03T09:35:00Z</time>
      </trkpt>
      <trkpt lat="48.67009" lon="1.73909">
        <ele>167.7</ele>
        <time>2024-10-03T09:35:07Z</time>
      </trkpt>
      <trkpt lat="48.67016" lon="1.73898">
        <ele>167.4</ele>
        <time>2024-10-03T09:35:14Z</time>
      </trkpt>
      <trkpt lat="48.67024" lon="1.73888">
        <ele>167.1</ele>
        <time>2024-10-03T09:35:21Z</time>
      </trkpt>
      <trkpt lat="48.67031" lon="1.73878">
        <ele>166.9</ele>
        <time>2024-10-03T09:35:28Z</time>
      </trkpt>
      <trkpt lat="48.67038" lon="1.73868">
        <ele>166.9</ele>
        <time>2024-10-03T09:35:35Z</time>
      </trkpt>
      <trkpt lat="48.67044" lon="1.73857">
        <ele>167.1</ele>
        <time>2024-10-03T09:35:41Z</time>
      </trkpt>
      <trkpt lat="48.67052" lon="1.7385">
        <ele>167</ele>
        <time>2024-10-03T09:35:47Z</time>
      </trkpt>
      <trkpt lat="48.6706" lon="1.73842">
        <ele>166.9</ele>
        <time>2024-10-03T09:35:54Z</time>
      </trkpt>
      <trkpt lat="48.67067" lon="1.73833">
        <ele>166.6</ele>
        <time>2024-10-03T09:36:01Z</time>
      </trkpt>
      <trkpt lat="48.67075" lon="1.73825">
        <ele>166.3</ele>
        <time>2024-10-03T09:36:08Z</time>
      </trkpt>
      <trkpt lat="48.67081" lon="1.73814">
        <ele>166.1</ele>
        <time>2024-10-03T09:36:15Z</time>
      </trkpt>
      <trkpt lat="48.67089" lon="1.73805">
        <ele>166</ele>
        <time>2024-10-03T09:36:21Z</time>
      </trkpt>
      <trkpt lat="48.67096" lon="1.73797">
        <ele>166</ele>
        <time>2024-10-03T09:36:27Z</time>
      </trkpt>
      <trkpt lat="48.67106" lon="1.73795">
        <ele>166</ele>
        <time>2024-10-03T09:36:36Z</time>
      </trkpt>
      <trkpt lat="48.67115" lon="1.73798">
        <ele>165.7</ele>
        <time>2024-10-03T09:36:43Z</time>
      </trkpt>
      <trkpt lat="48.67124" lon="1.73799">
        <ele>164.8</ele>
        <time>2024-10-03T09:36:49Z</time>
      </trkpt>
      <trkpt lat="48.67134" lon="1.73801">
        <ele>163.8</ele>
        <time>2024-10-03T09:36:56Z</time>
      </trkpt>
      <trkpt lat="48.67144" lon="1.73804">
        <ele>162.4</ele>
        <time>2024-10-03T09:37:04Z</time>
      </trkpt>
      <trkpt lat="48.67153" lon="1.73807">
        <ele>160.8</ele>
        <time>2024-10-03T09:37:12Z</time>
      </trkpt>
      <trkpt lat="48.67162" lon="1.73805">
        <ele>159.6</ele>
        <time>2024-10-03T09:37:21Z</time>
      </trkpt>
      <trkpt lat="48.67171" lon="1.7381">
        <ele>157.1</ele>
        <time>2024-10-03T09:37:32Z</time>
      </trkpt>
      <trkpt lat="48.67179" lon="1.73817">
        <ele>154.6</ele>
        <time>2024-10-03T09:37:42Z</time>
      </trkpt>
      <trkpt lat="48.67189" lon="1.73815">
        <ele>152.2</ele>
        <time>2024-10-03T09:37:51Z</time>
      </trkpt>
      <trkpt lat="48.67197" lon="1.73808">
        <ele>149.7</ele>
        <time>2024-10-03T09:38:00Z</time>
      </trkpt>
      <trkpt lat="48.67206" lon="1.73801">
        <ele>148.1</ele>
        <time>2024-10-03T09:38:11Z</time>
      </trkpt>
      <trkpt lat="48.67214" lon="1.73796">
        <ele>146.4</ele>
        <time>2024-10-03T09:38:20Z</time>
      </trkpt>
      <trkpt lat="48.67222" lon="1.73787">
        <ele>144.4</ele>
        <time>2024-10-03T09:38:28Z</time>
      </trkpt>
      <trkpt lat="48.67231" lon="1.73781">
        <ele>142.9</ele>
        <time>2024-10-03T09:38:40Z</time>
      </trkpt>
      <trkpt lat="48.6724" lon="1.7378">
        <ele>141.5</ele>
        <time>2024-10-03T09:38:50Z</time>
      </trkpt>
      <trkpt lat="48.67249" lon="1.73777">
        <ele>140.2</ele>
        <time>2024-10-03T09:39:01Z</time>
      </trkpt>
      <trkpt lat="48.67258" lon="1.73773">
        <ele>139.7</ele>
        <time>2024-10-03T09:39:13Z</time>
      </trkpt>
      <trkpt lat="48.67266" lon="1.73767">
        <ele>139.4</ele>
        <time>2024-10-03T09:39:25Z</time>
      </trkpt>
    </trkseg>
  </trk>
</gpx>